<?xml version="1.0" encoding="UTF-8" standalone="no" ?>
<gpx xmlns="http://www.topografix.com/GPX/1/1" xmlns:xsi="http://www.w3.org/2001/XMLSchema-instance" xsi:schemaLocation="http://www.topografix.com/GPX/1/1 http://www.topografix.com/GPX/1/1/gpx.xsd" version="1.1" creator="VisuGPX - https://www.visugpx.com">
  <metadata>
    <name>Course à pied le midi</name>
  </metadata>
  <trk>
    <name><![CDATA[Course à pied le midi_1]]></name>
    <trkseg>
      <trkpt lat="48.7115" lon="7.16321">
        <ele>316.6</ele>
        <time>2023-09-18T09:26:29Z</time>
      </trkpt>
      <trkpt lat="48.71155" lon="7.16293">
        <ele>315.8</ele>
        <time>2023-09-18T09:26:35Z</time>
      </trkpt>
      <trkpt lat="48.71172" lon="7.16278">
        <ele>315</ele>
        <time>2023-09-18T09:26:41Z</time>
      </trkpt>
      <trkpt lat="48.71189" lon="7.16264">
        <ele>314.2</ele>
        <time>2023-09-18T09:26:47Z</time>
      </trkpt>
      <trkpt lat="48.7121" lon="7.16264">
        <ele>313.2</ele>
        <time>2023-09-18T09:26:54Z</time>
      </trkpt>
      <trkpt lat="48.71226" lon="7.16279">
        <ele>312.7</ele>
        <time>2023-09-18T09:27:00Z</time>
      </trkpt>
      <trkpt lat="48.71241" lon="7.16295">
        <ele>312.2</ele>
        <time>2023-09-18T09:27:06Z</time>
      </trkpt>
      <trkpt lat="48.71258" lon="7.16312">
        <ele>311.8</ele>
        <time>2023-09-18T09:27:13Z</time>
      </trkpt>
      <trkpt lat="48.71276" lon="7.16329">
        <ele>311.6</ele>
        <time>2023-09-18T09:27:20Z</time>
      </trkpt>
      <trkpt lat="48.71291" lon="7.16343">
        <ele>311.4</ele>
        <time>2023-09-18T09:27:26Z</time>
      </trkpt>
      <trkpt lat="48.71308" lon="7.16355">
        <ele>311.2</ele>
        <time>2023-09-18T09:27:32Z</time>
      </trkpt>
      <trkpt lat="48.71327" lon="7.16364">
        <ele>311</ele>
        <time>2023-09-18T09:27:37Z</time>
      </trkpt>
      <trkpt lat="48.71345" lon="7.16375">
        <ele>310.7</ele>
        <time>2023-09-18T09:27:43Z</time>
      </trkpt>
      <trkpt lat="48.71362" lon="7.16386">
        <ele>310.4</ele>
        <time>2023-09-18T09:27:49Z</time>
      </trkpt>
      <trkpt lat="48.71383" lon="7.16392">
        <ele>309.8</ele>
        <time>2023-09-18T09:27:56Z</time>
      </trkpt>
      <trkpt lat="48.71402" lon="7.16397">
        <ele>308.9</ele>
        <time>2023-09-18T09:28:02Z</time>
      </trkpt>
      <trkpt lat="48.71423" lon="7.16403">
        <ele>307.8</ele>
        <time>2023-09-18T09:28:08Z</time>
      </trkpt>
      <trkpt lat="48.71442" lon="7.16409">
        <ele>306.7</ele>
        <time>2023-09-18T09:28:13Z</time>
      </trkpt>
      <trkpt lat="48.71463" lon="7.16409">
        <ele>305.6</ele>
        <time>2023-09-18T09:28:19Z</time>
      </trkpt>
      <trkpt lat="48.71483" lon="7.1641">
        <ele>304.7</ele>
        <time>2023-09-18T09:28:25Z</time>
      </trkpt>
      <trkpt lat="48.71485" lon="7.16419">
        <ele>305.8</ele>
        <time>2023-09-18T09:28:27Z</time>
      </trkpt>
      <trkpt lat="48.71476" lon="7.16444">
        <ele>307.5</ele>
        <time>2023-09-18T09:28:34Z</time>
      </trkpt>
      <trkpt lat="48.71464" lon="7.16468">
        <ele>309.4</ele>
        <time>2023-09-18T09:28:42Z</time>
      </trkpt>
      <trkpt lat="48.71453" lon="7.1649">
        <ele>311.4</ele>
        <time>2023-09-18T09:28:49Z</time>
      </trkpt>
      <trkpt lat="48.71441" lon="7.16515">
        <ele>313.5</ele>
        <time>2023-09-18T09:28:57Z</time>
      </trkpt>
      <trkpt lat="48.7143" lon="7.16539">
        <ele>315.5</ele>
        <time>2023-09-18T09:29:05Z</time>
      </trkpt>
      <trkpt lat="48.71418" lon="7.16563">
        <ele>317.3</ele>
        <time>2023-09-18T09:29:13Z</time>
      </trkpt>
      <trkpt lat="48.71408" lon="7.16588">
        <ele>319</ele>
        <time>2023-09-18T09:29:21Z</time>
      </trkpt>
      <trkpt lat="48.71398" lon="7.16611">
        <ele>320.4</ele>
        <time>2023-09-18T09:29:28Z</time>
      </trkpt>
      <trkpt lat="48.71388" lon="7.16637">
        <ele>321.9</ele>
        <time>2023-09-18T09:29:35Z</time>
      </trkpt>
      <trkpt lat="48.71379" lon="7.16663">
        <ele>323.5</ele>
        <time>2023-09-18T09:29:42Z</time>
      </trkpt>
      <trkpt lat="48.71371" lon="7.16687">
        <ele>325.1</ele>
        <time>2023-09-18T09:29:49Z</time>
      </trkpt>
      <trkpt lat="48.71361" lon="7.16714">
        <ele>326.5</ele>
        <time>2023-09-18T09:29:56Z</time>
      </trkpt>
      <trkpt lat="48.71347" lon="7.16738">
        <ele>327.6</ele>
        <time>2023-09-18T09:30:03Z</time>
      </trkpt>
      <trkpt lat="48.71336" lon="7.16759">
        <ele>328.6</ele>
        <time>2023-09-18T09:30:09Z</time>
      </trkpt>
      <trkpt lat="48.71324" lon="7.16781">
        <ele>329.7</ele>
        <time>2023-09-18T09:30:15Z</time>
      </trkpt>
      <trkpt lat="48.71312" lon="7.16802">
        <ele>330.8</ele>
        <time>2023-09-18T09:30:21Z</time>
      </trkpt>
      <trkpt lat="48.71299" lon="7.16823">
        <ele>331.8</ele>
        <time>2023-09-18T09:30:28Z</time>
      </trkpt>
      <trkpt lat="48.71285" lon="7.16845">
        <ele>332.6</ele>
        <time>2023-09-18T09:30:35Z</time>
      </trkpt>
      <trkpt lat="48.71272" lon="7.16868">
        <ele>333.4</ele>
        <time>2023-09-18T09:30:42Z</time>
      </trkpt>
      <trkpt lat="48.71258" lon="7.16889">
        <ele>334.3</ele>
        <time>2023-09-18T09:30:49Z</time>
      </trkpt>
      <trkpt lat="48.71243" lon="7.16911">
        <ele>335.2</ele>
        <time>2023-09-18T09:30:56Z</time>
      </trkpt>
      <trkpt lat="48.71227" lon="7.16924">
        <ele>336.1</ele>
        <time>2023-09-18T09:31:02Z</time>
      </trkpt>
      <trkpt lat="48.71206" lon="7.16929">
        <ele>337.3</ele>
        <time>2023-09-18T09:31:09Z</time>
      </trkpt>
      <trkpt lat="48.71186" lon="7.16928">
        <ele>338.5</ele>
        <time>2023-09-18T09:31:16Z</time>
      </trkpt>
      <trkpt lat="48.71168" lon="7.16927">
        <ele>339.4</ele>
        <time>2023-09-18T09:31:22Z</time>
      </trkpt>
      <trkpt lat="48.71151" lon="7.16928">
        <ele>340.1</ele>
        <time>2023-09-18T09:31:28Z</time>
      </trkpt>
      <trkpt lat="48.71133" lon="7.16934">
        <ele>340.9</ele>
        <time>2023-09-18T09:31:34Z</time>
      </trkpt>
      <trkpt lat="48.71114" lon="7.1694">
        <ele>341.8</ele>
        <time>2023-09-18T09:31:40Z</time>
      </trkpt>
      <trkpt lat="48.71095" lon="7.1695">
        <ele>342.7</ele>
        <time>2023-09-18T09:31:47Z</time>
      </trkpt>
      <trkpt lat="48.71077" lon="7.16965">
        <ele>343.5</ele>
        <time>2023-09-18T09:31:54Z</time>
      </trkpt>
      <trkpt lat="48.71062" lon="7.16981">
        <ele>344.2</ele>
        <time>2023-09-18T09:32:00Z</time>
      </trkpt>
      <trkpt lat="48.71046" lon="7.16996">
        <ele>345</ele>
        <time>2023-09-18T09:32:06Z</time>
      </trkpt>
      <trkpt lat="48.71032" lon="7.17014">
        <ele>345.9</ele>
        <time>2023-09-18T09:32:12Z</time>
      </trkpt>
      <trkpt lat="48.71018" lon="7.17038">
        <ele>347.2</ele>
        <time>2023-09-18T09:32:19Z</time>
      </trkpt>
      <trkpt lat="48.71007" lon="7.17061">
        <ele>348.7</ele>
        <time>2023-09-18T09:32:25Z</time>
      </trkpt>
      <trkpt lat="48.70996" lon="7.17083">
        <ele>349.8</ele>
        <time>2023-09-18T09:32:31Z</time>
      </trkpt>
      <trkpt lat="48.70987" lon="7.17109">
        <ele>350</ele>
        <time>2023-09-18T09:32:37Z</time>
      </trkpt>
      <trkpt lat="48.70982" lon="7.17123">
        <ele>350.2</ele>
        <time>2023-09-18T09:32:40Z</time>
      </trkpt>
      <trkpt lat="48.70974" lon="7.1715">
        <ele>350.5</ele>
        <time>2023-09-18T09:32:46Z</time>
      </trkpt>
      <trkpt lat="48.70966" lon="7.17177">
        <ele>350.9</ele>
        <time>2023-09-18T09:32:52Z</time>
      </trkpt>
      <trkpt lat="48.70957" lon="7.17204">
        <ele>351.3</ele>
        <time>2023-09-18T09:32:58Z</time>
      </trkpt>
      <trkpt lat="48.70951" lon="7.17231">
        <ele>351.5</ele>
        <time>2023-09-18T09:33:04Z</time>
      </trkpt>
      <trkpt lat="48.70945" lon="7.17259">
        <ele>352.3</ele>
        <time>2023-09-18T09:33:10Z</time>
      </trkpt>
      <trkpt lat="48.70947" lon="7.17289">
        <ele>353.1</ele>
        <time>2023-09-18T09:33:16Z</time>
      </trkpt>
      <trkpt lat="48.70955" lon="7.17319">
        <ele>353.4</ele>
        <time>2023-09-18T09:33:22Z</time>
      </trkpt>
      <trkpt lat="48.70959" lon="7.17328">
        <ele>353.5</ele>
        <time>2023-09-18T09:33:24Z</time>
      </trkpt>
      <trkpt lat="48.70966" lon="7.17353">
        <ele>353.7</ele>
        <time>2023-09-18T09:33:29Z</time>
      </trkpt>
      <trkpt lat="48.70975" lon="7.17381">
        <ele>353.9</ele>
        <time>2023-09-18T09:33:35Z</time>
      </trkpt>
      <trkpt lat="48.70983" lon="7.1741">
        <ele>354</ele>
        <time>2023-09-18T09:33:41Z</time>
      </trkpt>
      <trkpt lat="48.7099" lon="7.17435">
        <ele>354.2</ele>
        <time>2023-09-18T09:33:46Z</time>
      </trkpt>
      <trkpt lat="48.70997" lon="7.17464">
        <ele>354.5</ele>
        <time>2023-09-18T09:33:52Z</time>
      </trkpt>
      <trkpt lat="48.71001" lon="7.17492">
        <ele>354.7</ele>
        <time>2023-09-18T09:33:58Z</time>
      </trkpt>
      <trkpt lat="48.70999" lon="7.17522">
        <ele>355</ele>
        <time>2023-09-18T09:34:04Z</time>
      </trkpt>
      <trkpt lat="48.70997" lon="7.17552">
        <ele>355.3</ele>
        <time>2023-09-18T09:34:10Z</time>
      </trkpt>
      <trkpt lat="48.70996" lon="7.17582">
        <ele>355.7</ele>
        <time>2023-09-18T09:34:16Z</time>
      </trkpt>
      <trkpt lat="48.70998" lon="7.17612">
        <ele>356.3</ele>
        <time>2023-09-18T09:34:22Z</time>
      </trkpt>
      <trkpt lat="48.71004" lon="7.17638">
        <ele>356.7</ele>
        <time>2023-09-18T09:34:27Z</time>
      </trkpt>
      <trkpt lat="48.71012" lon="7.17662">
        <ele>357.1</ele>
        <time>2023-09-18T09:34:32Z</time>
      </trkpt>
      <trkpt lat="48.71025" lon="7.17684">
        <ele>357.4</ele>
        <time>2023-09-18T09:34:37Z</time>
      </trkpt>
      <trkpt lat="48.7104" lon="7.17705">
        <ele>357.7</ele>
        <time>2023-09-18T09:34:43Z</time>
      </trkpt>
      <trkpt lat="48.71054" lon="7.17729">
        <ele>357.9</ele>
        <time>2023-09-18T09:34:49Z</time>
      </trkpt>
      <trkpt lat="48.71068" lon="7.17752">
        <ele>358.1</ele>
        <time>2023-09-18T09:34:55Z</time>
      </trkpt>
      <trkpt lat="48.71083" lon="7.17774">
        <ele>358.1</ele>
        <time>2023-09-18T09:35:01Z</time>
      </trkpt>
      <trkpt lat="48.71098" lon="7.17797">
        <ele>358.2</ele>
        <time>2023-09-18T09:35:07Z</time>
      </trkpt>
      <trkpt lat="48.71112" lon="7.17817">
        <ele>358.3</ele>
        <time>2023-09-18T09:35:12Z</time>
      </trkpt>
      <trkpt lat="48.71125" lon="7.17836">
        <ele>358.2</ele>
        <time>2023-09-18T09:35:17Z</time>
      </trkpt>
      <trkpt lat="48.71138" lon="7.17855">
        <ele>358.1</ele>
        <time>2023-09-18T09:35:22Z</time>
      </trkpt>
      <trkpt lat="48.71153" lon="7.17878">
        <ele>358.2</ele>
        <time>2023-09-18T09:35:28Z</time>
      </trkpt>
      <trkpt lat="48.71165" lon="7.17899">
        <ele>358.3</ele>
        <time>2023-09-18T09:35:33Z</time>
      </trkpt>
      <trkpt lat="48.71178" lon="7.1792">
        <ele>358.5</ele>
        <time>2023-09-18T09:35:38Z</time>
      </trkpt>
      <trkpt lat="48.7119" lon="7.17943">
        <ele>358.8</ele>
        <time>2023-09-18T09:35:43Z</time>
      </trkpt>
      <trkpt lat="48.71201" lon="7.17969">
        <ele>359.1</ele>
        <time>2023-09-18T09:35:49Z</time>
      </trkpt>
      <trkpt lat="48.71212" lon="7.17995">
        <ele>359.4</ele>
        <time>2023-09-18T09:35:55Z</time>
      </trkpt>
      <trkpt lat="48.71222" lon="7.18018">
        <ele>359.8</ele>
        <time>2023-09-18T09:36:00Z</time>
      </trkpt>
      <trkpt lat="48.71234" lon="7.18045">
        <ele>360</ele>
        <time>2023-09-18T09:36:06Z</time>
      </trkpt>
      <trkpt lat="48.71244" lon="7.18069">
        <ele>360.2</ele>
        <time>2023-09-18T09:36:11Z</time>
      </trkpt>
      <trkpt lat="48.71254" lon="7.18094">
        <ele>360.4</ele>
        <time>2023-09-18T09:36:16Z</time>
      </trkpt>
      <trkpt lat="48.71265" lon="7.18116">
        <ele>360.5</ele>
        <time>2023-09-18T09:36:21Z</time>
      </trkpt>
      <trkpt lat="48.71275" lon="7.1814">
        <ele>360.6</ele>
        <time>2023-09-18T09:36:26Z</time>
      </trkpt>
      <trkpt lat="48.71285" lon="7.18168">
        <ele>360.8</ele>
        <time>2023-09-18T09:36:32Z</time>
      </trkpt>
      <trkpt lat="48.71297" lon="7.18194">
        <ele>361</ele>
        <time>2023-09-18T09:36:38Z</time>
      </trkpt>
      <trkpt lat="48.7131" lon="7.18219">
        <ele>361.1</ele>
        <time>2023-09-18T09:36:44Z</time>
      </trkpt>
      <trkpt lat="48.71321" lon="7.18241">
        <ele>361.3</ele>
        <time>2023-09-18T09:36:49Z</time>
      </trkpt>
      <trkpt lat="48.71332" lon="7.18263">
        <ele>361.4</ele>
        <time>2023-09-18T09:36:54Z</time>
      </trkpt>
      <trkpt lat="48.71343" lon="7.18285">
        <ele>361.4</ele>
        <time>2023-09-18T09:36:59Z</time>
      </trkpt>
      <trkpt lat="48.71354" lon="7.18307">
        <ele>361.4</ele>
        <time>2023-09-18T09:37:04Z</time>
      </trkpt>
      <trkpt lat="48.71366" lon="7.1833">
        <ele>361.5</ele>
        <time>2023-09-18T09:37:09Z</time>
      </trkpt>
      <trkpt lat="48.71376" lon="7.18353">
        <ele>361.5</ele>
        <time>2023-09-18T09:37:14Z</time>
      </trkpt>
      <trkpt lat="48.71386" lon="7.18375">
        <ele>361.8</ele>
        <time>2023-09-18T09:37:19Z</time>
      </trkpt>
      <trkpt lat="48.71396" lon="7.18399">
        <ele>362.4</ele>
        <time>2023-09-18T09:37:24Z</time>
      </trkpt>
      <trkpt lat="48.71407" lon="7.18424">
        <ele>362.7</ele>
        <time>2023-09-18T09:37:30Z</time>
      </trkpt>
      <trkpt lat="48.71417" lon="7.18452">
        <ele>362.9</ele>
        <time>2023-09-18T09:37:36Z</time>
      </trkpt>
      <trkpt lat="48.71417" lon="7.18471">
        <ele>363</ele>
        <time>2023-09-18T09:37:40Z</time>
      </trkpt>
      <trkpt lat="48.71404" lon="7.1849">
        <ele>362.7</ele>
        <time>2023-09-18T09:37:45Z</time>
      </trkpt>
      <trkpt lat="48.71389" lon="7.18504">
        <ele>362.2</ele>
        <time>2023-09-18T09:37:50Z</time>
      </trkpt>
      <trkpt lat="48.71372" lon="7.18518">
        <ele>361.4</ele>
        <time>2023-09-18T09:37:55Z</time>
      </trkpt>
      <trkpt lat="48.71355" lon="7.18535">
        <ele>360.1</ele>
        <time>2023-09-18T09:38:01Z</time>
      </trkpt>
      <trkpt lat="48.71338" lon="7.18554">
        <ele>358.2</ele>
        <time>2023-09-18T09:38:07Z</time>
      </trkpt>
      <trkpt lat="48.71321" lon="7.1857">
        <ele>356.1</ele>
        <time>2023-09-18T09:38:13Z</time>
      </trkpt>
      <trkpt lat="48.71302" lon="7.18579">
        <ele>354.7</ele>
        <time>2023-09-18T09:38:19Z</time>
      </trkpt>
      <trkpt lat="48.71283" lon="7.18576">
        <ele>354</ele>
        <time>2023-09-18T09:38:25Z</time>
      </trkpt>
      <trkpt lat="48.71262" lon="7.18573">
        <ele>353.2</ele>
        <time>2023-09-18T09:38:32Z</time>
      </trkpt>
      <trkpt lat="48.71242" lon="7.18572">
        <ele>351.8</ele>
        <time>2023-09-18T09:38:39Z</time>
      </trkpt>
      <trkpt lat="48.71224" lon="7.18576">
        <ele>350.1</ele>
        <time>2023-09-18T09:38:45Z</time>
      </trkpt>
      <trkpt lat="48.71204" lon="7.18585">
        <ele>348.4</ele>
        <time>2023-09-18T09:38:51Z</time>
      </trkpt>
      <trkpt lat="48.71187" lon="7.18593">
        <ele>347.5</ele>
        <time>2023-09-18T09:38:56Z</time>
      </trkpt>
      <trkpt lat="48.71169" lon="7.18601">
        <ele>346.9</ele>
        <time>2023-09-18T09:39:03Z</time>
      </trkpt>
      <trkpt lat="48.71151" lon="7.18615">
        <ele>346.1</ele>
        <time>2023-09-18T09:39:09Z</time>
      </trkpt>
      <trkpt lat="48.71134" lon="7.1863">
        <ele>344.6</ele>
        <time>2023-09-18T09:39:14Z</time>
      </trkpt>
      <trkpt lat="48.71116" lon="7.1864">
        <ele>342.9</ele>
        <time>2023-09-18T09:39:19Z</time>
      </trkpt>
      <trkpt lat="48.71098" lon="7.18648">
        <ele>341.3</ele>
        <time>2023-09-18T09:39:24Z</time>
      </trkpt>
      <trkpt lat="48.7108" lon="7.18653">
        <ele>339.6</ele>
        <time>2023-09-18T09:39:29Z</time>
      </trkpt>
      <trkpt lat="48.71061" lon="7.18663">
        <ele>337.8</ele>
        <time>2023-09-18T09:39:35Z</time>
      </trkpt>
      <trkpt lat="48.71043" lon="7.18676">
        <ele>335.7</ele>
        <time>2023-09-18T09:39:41Z</time>
      </trkpt>
      <trkpt lat="48.71027" lon="7.18691">
        <ele>333.5</ele>
        <time>2023-09-18T09:39:46Z</time>
      </trkpt>
      <trkpt lat="48.71008" lon="7.18703">
        <ele>331.2</ele>
        <time>2023-09-18T09:39:51Z</time>
      </trkpt>
      <trkpt lat="48.70989" lon="7.18714">
        <ele>329.1</ele>
        <time>2023-09-18T09:39:56Z</time>
      </trkpt>
      <trkpt lat="48.70968" lon="7.18727">
        <ele>327.3</ele>
        <time>2023-09-18T09:40:02Z</time>
      </trkpt>
      <trkpt lat="48.7095" lon="7.18739">
        <ele>325.6</ele>
        <time>2023-09-18T09:40:07Z</time>
      </trkpt>
      <trkpt lat="48.70932" lon="7.18753">
        <ele>323.4</ele>
        <time>2023-09-18T09:40:12Z</time>
      </trkpt>
      <trkpt lat="48.70914" lon="7.18766">
        <ele>321.3</ele>
        <time>2023-09-18T09:40:17Z</time>
      </trkpt>
      <trkpt lat="48.70909" lon="7.18779">
        <ele>320.3</ele>
        <time>2023-09-18T09:40:21Z</time>
      </trkpt>
      <trkpt lat="48.70929" lon="7.18773">
        <ele>322.6</ele>
        <time>2023-09-18T09:40:28Z</time>
      </trkpt>
      <trkpt lat="48.70949" lon="7.18764">
        <ele>324.7</ele>
        <time>2023-09-18T09:40:35Z</time>
      </trkpt>
      <trkpt lat="48.70969" lon="7.18755">
        <ele>327</ele>
        <time>2023-09-18T09:40:41Z</time>
      </trkpt>
      <trkpt lat="48.70987" lon="7.18746">
        <ele>329.2</ele>
        <time>2023-09-18T09:40:47Z</time>
      </trkpt>
      <trkpt lat="48.71007" lon="7.18738">
        <ele>331.5</ele>
        <time>2023-09-18T09:40:53Z</time>
      </trkpt>
      <trkpt lat="48.71025" lon="7.18734">
        <ele>333.6</ele>
        <time>2023-09-18T09:40:59Z</time>
      </trkpt>
      <trkpt lat="48.71047" lon="7.18736">
        <ele>333.3</ele>
        <time>2023-09-18T09:41:04Z</time>
      </trkpt>
      <trkpt lat="48.71069" lon="7.18739">
        <ele>331.8</ele>
        <time>2023-09-18T09:41:10Z</time>
      </trkpt>
      <trkpt lat="48.7109" lon="7.18738">
        <ele>330.3</ele>
        <time>2023-09-18T09:41:16Z</time>
      </trkpt>
      <trkpt lat="48.71108" lon="7.18743">
        <ele>329.1</ele>
        <time>2023-09-18T09:41:21Z</time>
      </trkpt>
      <trkpt lat="48.71112" lon="7.1876">
        <ele>328.2</ele>
        <time>2023-09-18T09:41:26Z</time>
      </trkpt>
      <trkpt lat="48.71101" lon="7.18781">
        <ele>327</ele>
        <time>2023-09-18T09:41:31Z</time>
      </trkpt>
      <trkpt lat="48.71088" lon="7.18801">
        <ele>325.7</ele>
        <time>2023-09-18T09:41:36Z</time>
      </trkpt>
      <trkpt lat="48.71075" lon="7.18823">
        <ele>324.2</ele>
        <time>2023-09-18T09:41:41Z</time>
      </trkpt>
      <trkpt lat="48.7106" lon="7.18846">
        <ele>322.4</ele>
        <time>2023-09-18T09:41:47Z</time>
      </trkpt>
      <trkpt lat="48.71047" lon="7.18869">
        <ele>320.8</ele>
        <time>2023-09-18T09:41:53Z</time>
      </trkpt>
      <trkpt lat="48.7103" lon="7.18887">
        <ele>319</ele>
        <time>2023-09-18T09:42:00Z</time>
      </trkpt>
      <trkpt lat="48.71014" lon="7.18902">
        <ele>317.4</ele>
        <time>2023-09-18T09:42:05Z</time>
      </trkpt>
      <trkpt lat="48.70995" lon="7.18919">
        <ele>315.6</ele>
        <time>2023-09-18T09:42:10Z</time>
      </trkpt>
      <trkpt lat="48.70977" lon="7.18936">
        <ele>313.8</ele>
        <time>2023-09-18T09:42:15Z</time>
      </trkpt>
      <trkpt lat="48.70965" lon="7.18939">
        <ele>313.2</ele>
        <time>2023-09-18T09:42:19Z</time>
      </trkpt>
      <trkpt lat="48.70955" lon="7.18927">
        <ele>313.4</ele>
        <time>2023-09-18T09:42:24Z</time>
      </trkpt>
      <trkpt lat="48.70935" lon="7.18934">
        <ele>311.2</ele>
        <time>2023-09-18T09:42:30Z</time>
      </trkpt>
      <trkpt lat="48.70917" lon="7.18939">
        <ele>307.8</ele>
        <time>2023-09-18T09:42:36Z</time>
      </trkpt>
      <trkpt lat="48.70902" lon="7.18955">
        <ele>303.1</ele>
        <time>2023-09-18T09:42:41Z</time>
      </trkpt>
      <trkpt lat="48.70898" lon="7.18956">
        <ele>302.2</ele>
        <time>2023-09-18T09:42:42Z</time>
      </trkpt>
      <trkpt lat="48.70897" lon="7.18945">
        <ele>300.5</ele>
        <time>2023-09-18T09:42:48Z</time>
      </trkpt>
      <trkpt lat="48.70878" lon="7.1895">
        <ele>296.6</ele>
        <time>2023-09-18T09:42:53Z</time>
      </trkpt>
      <trkpt lat="48.70859" lon="7.18962">
        <ele>293.9</ele>
        <time>2023-09-18T09:42:57Z</time>
      </trkpt>
      <trkpt lat="48.70841" lon="7.18972">
        <ele>292.7</ele>
        <time>2023-09-18T09:43:01Z</time>
      </trkpt>
      <trkpt lat="48.70824" lon="7.18989">
        <ele>292.1</ele>
        <time>2023-09-18T09:43:07Z</time>
      </trkpt>
      <trkpt lat="48.70812" lon="7.19013">
        <ele>291.4</ele>
        <time>2023-09-18T09:43:14Z</time>
      </trkpt>
      <trkpt lat="48.70811" lon="7.19041">
        <ele>291.5</ele>
        <time>2023-09-18T09:43:23Z</time>
      </trkpt>
      <trkpt lat="48.7082" lon="7.19072">
        <ele>292.9</ele>
        <time>2023-09-18T09:43:31Z</time>
      </trkpt>
      <trkpt lat="48.70823" lon="7.191">
        <ele>293.4</ele>
        <time>2023-09-18T09:43:36Z</time>
      </trkpt>
      <trkpt lat="48.70829" lon="7.1913">
        <ele>293.6</ele>
        <time>2023-09-18T09:43:42Z</time>
      </trkpt>
      <trkpt lat="48.70839" lon="7.19162">
        <ele>293.4</ele>
        <time>2023-09-18T09:43:48Z</time>
      </trkpt>
      <trkpt lat="48.70846" lon="7.1919">
        <ele>292.2</ele>
        <time>2023-09-18T09:43:54Z</time>
      </trkpt>
      <trkpt lat="48.70855" lon="7.19214">
        <ele>291.3</ele>
        <time>2023-09-18T09:44:00Z</time>
      </trkpt>
      <trkpt lat="48.70866" lon="7.19237">
        <ele>293.9</ele>
        <time>2023-09-18T09:44:07Z</time>
      </trkpt>
      <trkpt lat="48.70871" lon="7.19266">
        <ele>294.7</ele>
        <time>2023-09-18T09:44:13Z</time>
      </trkpt>
      <trkpt lat="48.70879" lon="7.19293">
        <ele>293.8</ele>
        <time>2023-09-18T09:44:20Z</time>
      </trkpt>
      <trkpt lat="48.70883" lon="7.19323">
        <ele>290.6</ele>
        <time>2023-09-18T09:44:27Z</time>
      </trkpt>
      <trkpt lat="48.70882" lon="7.19325">
        <ele>290.2</ele>
        <time>2023-09-18T09:44:29Z</time>
      </trkpt>
      <trkpt lat="48.70881" lon="7.19331">
        <ele>289.4</ele>
        <time>2023-09-18T09:44:32Z</time>
      </trkpt>
      <trkpt lat="48.70885" lon="7.19362">
        <ele>286</ele>
        <time>2023-09-18T09:44:37Z</time>
      </trkpt>
      <trkpt lat="48.70894" lon="7.19391">
        <ele>283.5</ele>
        <time>2023-09-18T09:44:44Z</time>
      </trkpt>
      <trkpt lat="48.70903" lon="7.19413">
        <ele>281.4</ele>
        <time>2023-09-18T09:44:49Z</time>
      </trkpt>
      <trkpt lat="48.70916" lon="7.19437">
        <ele>279.6</ele>
        <time>2023-09-18T09:44:57Z</time>
      </trkpt>
      <trkpt lat="48.70923" lon="7.19444">
        <ele>278.6</ele>
        <time>2023-09-18T09:45:03Z</time>
      </trkpt>
      <trkpt lat="48.7093" lon="7.19456">
        <ele>277.2</ele>
        <time>2023-09-18T09:45:08Z</time>
      </trkpt>
      <trkpt lat="48.70937" lon="7.19468">
        <ele>277.2</ele>
        <time>2023-09-18T09:45:17Z</time>
      </trkpt>
      <trkpt lat="48.70939" lon="7.19468">
        <ele>277.4</ele>
        <time>2023-09-18T09:45:19Z</time>
      </trkpt>
      <trkpt lat="48.70944" lon="7.19467">
        <ele>278</ele>
        <time>2023-09-18T09:45:24Z</time>
      </trkpt>
      <trkpt lat="48.70941" lon="7.19494">
        <ele>280.4</ele>
        <time>2023-09-18T09:45:34Z</time>
      </trkpt>
      <trkpt lat="48.70942" lon="7.19525">
        <ele>280.8</ele>
        <time>2023-09-18T09:45:41Z</time>
      </trkpt>
      <trkpt lat="48.70949" lon="7.19551">
        <ele>283.5</ele>
        <time>2023-09-18T09:45:49Z</time>
      </trkpt>
      <trkpt lat="48.70959" lon="7.19575">
        <ele>287.3</ele>
        <time>2023-09-18T09:45:58Z</time>
      </trkpt>
      <trkpt lat="48.70966" lon="7.19603">
        <ele>292.3</ele>
        <time>2023-09-18T09:46:07Z</time>
      </trkpt>
      <trkpt lat="48.70965" lon="7.19631">
        <ele>292.6</ele>
        <time>2023-09-18T09:46:14Z</time>
      </trkpt>
      <trkpt lat="48.70965" lon="7.1966">
        <ele>293.8</ele>
        <time>2023-09-18T09:46:20Z</time>
      </trkpt>
      <trkpt lat="48.70974" lon="7.19683">
        <ele>299.6</ele>
        <time>2023-09-18T09:46:29Z</time>
      </trkpt>
      <trkpt lat="48.70981" lon="7.1971">
        <ele>303</ele>
        <time>2023-09-18T09:46:37Z</time>
      </trkpt>
      <trkpt lat="48.70983" lon="7.19739">
        <ele>301.3</ele>
        <time>2023-09-18T09:46:46Z</time>
      </trkpt>
      <trkpt lat="48.70991" lon="7.19764">
        <ele>299.3</ele>
        <time>2023-09-18T09:46:56Z</time>
      </trkpt>
      <trkpt lat="48.70991" lon="7.19794">
        <ele>296.9</ele>
        <time>2023-09-18T09:47:03Z</time>
      </trkpt>
      <trkpt lat="48.70992" lon="7.19823">
        <ele>294.5</ele>
        <time>2023-09-18T09:47:09Z</time>
      </trkpt>
      <trkpt lat="48.70991" lon="7.19854">
        <ele>292</ele>
        <time>2023-09-18T09:47:16Z</time>
      </trkpt>
      <trkpt lat="48.70991" lon="7.19883">
        <ele>289.7</ele>
        <time>2023-09-18T09:47:22Z</time>
      </trkpt>
      <trkpt lat="48.70986" lon="7.19911">
        <ele>287.3</ele>
        <time>2023-09-18T09:47:28Z</time>
      </trkpt>
      <trkpt lat="48.70983" lon="7.19942">
        <ele>284.8</ele>
        <time>2023-09-18T09:47:34Z</time>
      </trkpt>
      <trkpt lat="48.70982" lon="7.19973">
        <ele>282.4</ele>
        <time>2023-09-18T09:47:41Z</time>
      </trkpt>
      <trkpt lat="48.70981" lon="7.20004">
        <ele>280.1</ele>
        <time>2023-09-18T09:47:46Z</time>
      </trkpt>
      <trkpt lat="48.70983" lon="7.20035">
        <ele>277.4</ele>
        <time>2023-09-18T09:47:51Z</time>
      </trkpt>
      <trkpt lat="48.7099" lon="7.20065">
        <ele>274.5</ele>
        <time>2023-09-18T09:47:56Z</time>
      </trkpt>
      <trkpt lat="48.70996" lon="7.20093">
        <ele>271.8</ele>
        <time>2023-09-18T09:48:02Z</time>
      </trkpt>
      <trkpt lat="48.71005" lon="7.2011">
        <ele>269.8</ele>
        <time>2023-09-18T09:48:06Z</time>
      </trkpt>
      <trkpt lat="48.71023" lon="7.20119">
        <ele>267.4</ele>
        <time>2023-09-18T09:48:14Z</time>
      </trkpt>
      <trkpt lat="48.7104" lon="7.20129">
        <ele>265.8</ele>
        <time>2023-09-18T09:48:22Z</time>
      </trkpt>
      <trkpt lat="48.71043" lon="7.2013">
        <ele>265.5</ele>
        <time>2023-09-18T09:48:28Z</time>
      </trkpt>
      <trkpt lat="48.71042" lon="7.20132">
        <ele>265.4</ele>
        <time>2023-09-18T09:48:31Z</time>
      </trkpt>
      <trkpt lat="48.71026" lon="7.20145">
        <ele>264.4</ele>
        <time>2023-09-18T09:48:43Z</time>
      </trkpt>
      <trkpt lat="48.71011" lon="7.2016">
        <ele>264.2</ele>
        <time>2023-09-18T09:48:49Z</time>
      </trkpt>
      <trkpt lat="48.71006" lon="7.2019">
        <ele>263.7</ele>
        <time>2023-09-18T09:48:55Z</time>
      </trkpt>
      <trkpt lat="48.71004" lon="7.20221">
        <ele>263</ele>
        <time>2023-09-18T09:49:02Z</time>
      </trkpt>
      <trkpt lat="48.71003" lon="7.20251">
        <ele>262.4</ele>
        <time>2023-09-18T09:49:10Z</time>
      </trkpt>
      <trkpt lat="48.71002" lon="7.2028">
        <ele>262.3</ele>
        <time>2023-09-18T09:49:16Z</time>
      </trkpt>
      <trkpt lat="48.71002" lon="7.2031">
        <ele>266.4</ele>
        <time>2023-09-18T09:49:22Z</time>
      </trkpt>
      <trkpt lat="48.71004" lon="7.20336">
        <ele>272.2</ele>
        <time>2023-09-18T09:49:30Z</time>
      </trkpt>
      <trkpt lat="48.71008" lon="7.20364">
        <ele>278.6</ele>
        <time>2023-09-18T09:49:37Z</time>
      </trkpt>
      <trkpt lat="48.71004" lon="7.20391">
        <ele>282.1</ele>
        <time>2023-09-18T09:49:46Z</time>
      </trkpt>
      <trkpt lat="48.70996" lon="7.20417">
        <ele>283</ele>
        <time>2023-09-18T09:49:52Z</time>
      </trkpt>
      <trkpt lat="48.70989" lon="7.20445">
        <ele>284.1</ele>
        <time>2023-09-18T09:49:59Z</time>
      </trkpt>
      <trkpt lat="48.70983" lon="7.20474">
        <ele>285.1</ele>
        <time>2023-09-18T09:50:05Z</time>
      </trkpt>
      <trkpt lat="48.70978" lon="7.20503">
        <ele>286.2</ele>
        <time>2023-09-18T09:50:10Z</time>
      </trkpt>
      <trkpt lat="48.70977" lon="7.20517">
        <ele>286.7</ele>
        <time>2023-09-18T09:50:14Z</time>
      </trkpt>
      <trkpt lat="48.70974" lon="7.20547">
        <ele>287.7</ele>
        <time>2023-09-18T09:50:23Z</time>
      </trkpt>
      <trkpt lat="48.70973" lon="7.20557">
        <ele>288.1</ele>
        <time>2023-09-18T09:50:26Z</time>
      </trkpt>
      <trkpt lat="48.70964" lon="7.20587">
        <ele>289.2</ele>
        <time>2023-09-18T09:50:33Z</time>
      </trkpt>
      <trkpt lat="48.70963" lon="7.20618">
        <ele>290.3</ele>
        <time>2023-09-18T09:50:40Z</time>
      </trkpt>
      <trkpt lat="48.70965" lon="7.20649">
        <ele>291.3</ele>
        <time>2023-09-18T09:50:46Z</time>
      </trkpt>
      <trkpt lat="48.70969" lon="7.2068">
        <ele>292.4</ele>
        <time>2023-09-18T09:50:52Z</time>
      </trkpt>
      <trkpt lat="48.70971" lon="7.20708">
        <ele>293.4</ele>
        <time>2023-09-18T09:50:59Z</time>
      </trkpt>
      <trkpt lat="48.70967" lon="7.20739">
        <ele>294.5</ele>
        <time>2023-09-18T09:51:06Z</time>
      </trkpt>
      <trkpt lat="48.70969" lon="7.20766">
        <ele>295.2</ele>
        <time>2023-09-18T09:51:15Z</time>
      </trkpt>
      <trkpt lat="48.70975" lon="7.20792">
        <ele>297.4</ele>
        <time>2023-09-18T09:51:22Z</time>
      </trkpt>
      <trkpt lat="48.70984" lon="7.2082">
        <ele>299.9</ele>
        <time>2023-09-18T09:51:28Z</time>
      </trkpt>
      <trkpt lat="48.70991" lon="7.20849">
        <ele>301.1</ele>
        <time>2023-09-18T09:51:34Z</time>
      </trkpt>
      <trkpt lat="48.70996" lon="7.20878">
        <ele>302.4</ele>
        <time>2023-09-18T09:51:44Z</time>
      </trkpt>
      <trkpt lat="48.70999" lon="7.20909">
        <ele>303.9</ele>
        <time>2023-09-18T09:51:54Z</time>
      </trkpt>
      <trkpt lat="48.71009" lon="7.20934">
        <ele>304.9</ele>
        <time>2023-09-18T09:52:03Z</time>
      </trkpt>
      <trkpt lat="48.71015" lon="7.20963">
        <ele>305.6</ele>
        <time>2023-09-18T09:52:11Z</time>
      </trkpt>
      <trkpt lat="48.71016" lon="7.20994">
        <ele>305.6</ele>
        <time>2023-09-18T09:52:19Z</time>
      </trkpt>
      <trkpt lat="48.71012" lon="7.21022">
        <ele>305</ele>
        <time>2023-09-18T09:52:26Z</time>
      </trkpt>
      <trkpt lat="48.71013" lon="7.21054">
        <ele>305</ele>
        <time>2023-09-18T09:52:33Z</time>
      </trkpt>
      <trkpt lat="48.71017" lon="7.21086">
        <ele>305.7</ele>
        <time>2023-09-18T09:52:40Z</time>
      </trkpt>
      <trkpt lat="48.71017" lon="7.21116">
        <ele>306.6</ele>
        <time>2023-09-18T09:52:47Z</time>
      </trkpt>
      <trkpt lat="48.71018" lon="7.21144">
        <ele>307.2</ele>
        <time>2023-09-18T09:52:54Z</time>
      </trkpt>
      <trkpt lat="48.71021" lon="7.21173">
        <ele>307.5</ele>
        <time>2023-09-18T09:53:01Z</time>
      </trkpt>
      <trkpt lat="48.71028" lon="7.21201">
        <ele>308.6</ele>
        <time>2023-09-18T09:53:08Z</time>
      </trkpt>
      <trkpt lat="48.71034" lon="7.21231">
        <ele>310.1</ele>
        <time>2023-09-18T09:53:18Z</time>
      </trkpt>
      <trkpt lat="48.71038" lon="7.21259">
        <ele>309.9</ele>
        <time>2023-09-18T09:53:30Z</time>
      </trkpt>
      <trkpt lat="48.71041" lon="7.21286">
        <ele>310.1</ele>
        <time>2023-09-18T09:53:38Z</time>
      </trkpt>
      <trkpt lat="48.71037" lon="7.21315">
        <ele>305.9</ele>
        <time>2023-09-18T09:53:44Z</time>
      </trkpt>
      <trkpt lat="48.71037" lon="7.21345">
        <ele>301.3</ele>
        <time>2023-09-18T09:53:52Z</time>
      </trkpt>
      <trkpt lat="48.71031" lon="7.21367">
        <ele>297.5</ele>
        <time>2023-09-18T09:54:00Z</time>
      </trkpt>
      <trkpt lat="48.7104" lon="7.21395">
        <ele>293.3</ele>
        <time>2023-09-18T09:54:07Z</time>
      </trkpt>
      <trkpt lat="48.71054" lon="7.21417">
        <ele>290.8</ele>
        <time>2023-09-18T09:54:13Z</time>
      </trkpt>
      <trkpt lat="48.71072" lon="7.21437">
        <ele>288.1</ele>
        <time>2023-09-18T09:54:19Z</time>
      </trkpt>
      <trkpt lat="48.71086" lon="7.21458">
        <ele>285.4</ele>
        <time>2023-09-18T09:54:24Z</time>
      </trkpt>
      <trkpt lat="48.71102" lon="7.21478">
        <ele>285.4</ele>
        <time>2023-09-18T09:54:30Z</time>
      </trkpt>
      <trkpt lat="48.71107" lon="7.21485">
        <ele>285.4</ele>
        <time>2023-09-18T09:54:33Z</time>
      </trkpt>
      <trkpt lat="48.71116" lon="7.21495">
        <ele>285.2</ele>
        <time>2023-09-18T09:54:37Z</time>
      </trkpt>
      <trkpt lat="48.71119" lon="7.21498">
        <ele>285.1</ele>
        <time>2023-09-18T09:54:39Z</time>
      </trkpt>
      <trkpt lat="48.71138" lon="7.21502">
        <ele>284.9</ele>
        <time>2023-09-18T09:54:47Z</time>
      </trkpt>
      <trkpt lat="48.71157" lon="7.21504">
        <ele>284.8</ele>
        <time>2023-09-18T09:54:57Z</time>
      </trkpt>
      <trkpt lat="48.71176" lon="7.21498">
        <ele>284.9</ele>
        <time>2023-09-18T09:55:05Z</time>
      </trkpt>
      <trkpt lat="48.71193" lon="7.21487">
        <ele>285.5</ele>
        <time>2023-09-18T09:55:16Z</time>
      </trkpt>
      <trkpt lat="48.71205" lon="7.21463">
        <ele>286.8</ele>
        <time>2023-09-18T09:55:27Z</time>
      </trkpt>
      <trkpt lat="48.7121" lon="7.21436">
        <ele>288.2</ele>
        <time>2023-09-18T09:55:37Z</time>
      </trkpt>
      <trkpt lat="48.71217" lon="7.21409">
        <ele>289.6</ele>
        <time>2023-09-18T09:55:45Z</time>
      </trkpt>
      <trkpt lat="48.71223" lon="7.21381">
        <ele>290.9</ele>
        <time>2023-09-18T09:55:53Z</time>
      </trkpt>
      <trkpt lat="48.71224" lon="7.21352">
        <ele>293.1</ele>
        <time>2023-09-18T09:56:04Z</time>
      </trkpt>
      <trkpt lat="48.7123" lon="7.21324">
        <ele>295.9</ele>
        <time>2023-09-18T09:56:17Z</time>
      </trkpt>
      <trkpt lat="48.71238" lon="7.21297">
        <ele>298.2</ele>
        <time>2023-09-18T09:56:28Z</time>
      </trkpt>
      <trkpt lat="48.7125" lon="7.21273">
        <ele>300.2</ele>
        <time>2023-09-18T09:56:39Z</time>
      </trkpt>
      <trkpt lat="48.71263" lon="7.21254">
        <ele>301.7</ele>
        <time>2023-09-18T09:56:49Z</time>
      </trkpt>
      <trkpt lat="48.71274" lon="7.21243">
        <ele>302.9</ele>
        <time>2023-09-18T09:56:55Z</time>
      </trkpt>
      <trkpt lat="48.71295" lon="7.2124">
        <ele>305.2</ele>
        <time>2023-09-18T09:57:04Z</time>
      </trkpt>
      <trkpt lat="48.71313" lon="7.21251">
        <ele>307.3</ele>
        <time>2023-09-18T09:57:11Z</time>
      </trkpt>
      <trkpt lat="48.71327" lon="7.21269">
        <ele>309.1</ele>
        <time>2023-09-18T09:57:18Z</time>
      </trkpt>
      <trkpt lat="48.71341" lon="7.21291">
        <ele>310.5</ele>
        <time>2023-09-18T09:57:26Z</time>
      </trkpt>
      <trkpt lat="48.71352" lon="7.21314">
        <ele>312.5</ele>
        <time>2023-09-18T09:57:33Z</time>
      </trkpt>
      <trkpt lat="48.71365" lon="7.21334">
        <ele>315</ele>
        <time>2023-09-18T09:57:41Z</time>
      </trkpt>
      <trkpt lat="48.7138" lon="7.21349">
        <ele>317.1</ele>
        <time>2023-09-18T09:57:52Z</time>
      </trkpt>
      <trkpt lat="48.71398" lon="7.21357">
        <ele>318.2</ele>
        <time>2023-09-18T09:58:05Z</time>
      </trkpt>
      <trkpt lat="48.71416" lon="7.21362">
        <ele>318.6</ele>
        <time>2023-09-18T09:58:13Z</time>
      </trkpt>
      <trkpt lat="48.71432" lon="7.21381">
        <ele>318.6</ele>
        <time>2023-09-18T09:58:19Z</time>
      </trkpt>
      <trkpt lat="48.71445" lon="7.21401">
        <ele>318</ele>
        <time>2023-09-18T09:58:24Z</time>
      </trkpt>
      <trkpt lat="48.71457" lon="7.21423">
        <ele>317.4</ele>
        <time>2023-09-18T09:58:29Z</time>
      </trkpt>
      <trkpt lat="48.71471" lon="7.21447">
        <ele>316.4</ele>
        <time>2023-09-18T09:58:35Z</time>
      </trkpt>
      <trkpt lat="48.71485" lon="7.21471">
        <ele>315.5</ele>
        <time>2023-09-18T09:58:41Z</time>
      </trkpt>
      <trkpt lat="48.715" lon="7.21493">
        <ele>314.9</ele>
        <time>2023-09-18T09:58:47Z</time>
      </trkpt>
      <trkpt lat="48.71516" lon="7.21514">
        <ele>315</ele>
        <time>2023-09-18T09:58:53Z</time>
      </trkpt>
      <trkpt lat="48.71532" lon="7.21531">
        <ele>315.5</ele>
        <time>2023-09-18T09:58:59Z</time>
      </trkpt>
      <trkpt lat="48.71547" lon="7.21545">
        <ele>315.5</ele>
        <time>2023-09-18T09:59:05Z</time>
      </trkpt>
      <trkpt lat="48.71562" lon="7.21564">
        <ele>314.8</ele>
        <time>2023-09-18T09:59:11Z</time>
      </trkpt>
      <trkpt lat="48.71576" lon="7.21588">
        <ele>314.1</ele>
        <time>2023-09-18T09:59:17Z</time>
      </trkpt>
      <trkpt lat="48.71591" lon="7.21609">
        <ele>313.7</ele>
        <time>2023-09-18T09:59:23Z</time>
      </trkpt>
      <trkpt lat="48.7161" lon="7.21621">
        <ele>313.9</ele>
        <time>2023-09-18T09:59:29Z</time>
      </trkpt>
      <trkpt lat="48.7163" lon="7.21622">
        <ele>314.2</ele>
        <time>2023-09-18T09:59:36Z</time>
      </trkpt>
      <trkpt lat="48.71648" lon="7.21611">
        <ele>314</ele>
        <time>2023-09-18T09:59:43Z</time>
      </trkpt>
      <trkpt lat="48.71666" lon="7.21597">
        <ele>313.8</ele>
        <time>2023-09-18T09:59:49Z</time>
      </trkpt>
      <trkpt lat="48.71683" lon="7.21583">
        <ele>313.8</ele>
        <time>2023-09-18T09:59:55Z</time>
      </trkpt>
      <trkpt lat="48.717" lon="7.21566">
        <ele>313.9</ele>
        <time>2023-09-18T10:00:00Z</time>
      </trkpt>
      <trkpt lat="48.71715" lon="7.21546">
        <ele>313.9</ele>
        <time>2023-09-18T10:00:06Z</time>
      </trkpt>
      <trkpt lat="48.71731" lon="7.21525">
        <ele>314</ele>
        <time>2023-09-18T10:00:12Z</time>
      </trkpt>
      <trkpt lat="48.71746" lon="7.21508">
        <ele>314</ele>
        <time>2023-09-18T10:00:18Z</time>
      </trkpt>
      <trkpt lat="48.71762" lon="7.21491">
        <ele>313.9</ele>
        <time>2023-09-18T10:00:23Z</time>
      </trkpt>
      <trkpt lat="48.71779" lon="7.21484">
        <ele>313.6</ele>
        <time>2023-09-18T10:00:29Z</time>
      </trkpt>
      <trkpt lat="48.71798" lon="7.21484">
        <ele>313.2</ele>
        <time>2023-09-18T10:00:36Z</time>
      </trkpt>
      <trkpt lat="48.71816" lon="7.21486">
        <ele>312.5</ele>
        <time>2023-09-18T10:00:41Z</time>
      </trkpt>
      <trkpt lat="48.71835" lon="7.21484">
        <ele>311.2</ele>
        <time>2023-09-18T10:00:46Z</time>
      </trkpt>
      <trkpt lat="48.71855" lon="7.2148">
        <ele>309.5</ele>
        <time>2023-09-18T10:00:52Z</time>
      </trkpt>
      <trkpt lat="48.71873" lon="7.21471">
        <ele>307.3</ele>
        <time>2023-09-18T10:00:58Z</time>
      </trkpt>
      <trkpt lat="48.7189" lon="7.21464">
        <ele>304.8</ele>
        <time>2023-09-18T10:01:04Z</time>
      </trkpt>
      <trkpt lat="48.71895" lon="7.2147">
        <ele>301.8</ele>
        <time>2023-09-18T10:01:06Z</time>
      </trkpt>
      <trkpt lat="48.71893" lon="7.21498">
        <ele>300.3</ele>
        <time>2023-09-18T10:01:13Z</time>
      </trkpt>
      <trkpt lat="48.71882" lon="7.21521">
        <ele>296.8</ele>
        <time>2023-09-18T10:01:20Z</time>
      </trkpt>
      <trkpt lat="48.71866" lon="7.21534">
        <ele>293.6</ele>
        <time>2023-09-18T10:01:25Z</time>
      </trkpt>
      <trkpt lat="48.71848" lon="7.21542">
        <ele>290.9</ele>
        <time>2023-09-18T10:01:30Z</time>
      </trkpt>
      <trkpt lat="48.71838" lon="7.21545">
        <ele>289.3</ele>
        <time>2023-09-18T10:01:33Z</time>
      </trkpt>
      <trkpt lat="48.71832" lon="7.21549">
        <ele>288.3</ele>
        <time>2023-09-18T10:01:35Z</time>
      </trkpt>
      <trkpt lat="48.71814" lon="7.21558">
        <ele>285</ele>
        <time>2023-09-18T10:01:41Z</time>
      </trkpt>
      <trkpt lat="48.71797" lon="7.21573">
        <ele>281.9</ele>
        <time>2023-09-18T10:01:47Z</time>
      </trkpt>
      <trkpt lat="48.71786" lon="7.21595">
        <ele>278.8</ele>
        <time>2023-09-18T10:01:55Z</time>
      </trkpt>
      <trkpt lat="48.71782" lon="7.21623">
        <ele>275.5</ele>
        <time>2023-09-18T10:02:00Z</time>
      </trkpt>
      <trkpt lat="48.71785" lon="7.21651">
        <ele>271.9</ele>
        <time>2023-09-18T10:02:06Z</time>
      </trkpt>
      <trkpt lat="48.71801" lon="7.21642">
        <ele>268.1</ele>
        <time>2023-09-18T10:02:16Z</time>
      </trkpt>
      <trkpt lat="48.71804" lon="7.21641">
        <ele>266.7</ele>
        <time>2023-09-18T10:02:18Z</time>
      </trkpt>
      <trkpt lat="48.71822" lon="7.21643">
        <ele>260</ele>
        <time>2023-09-18T10:02:32Z</time>
      </trkpt>
      <trkpt lat="48.71822" lon="7.21643">
        <ele>260</ele>
        <time>2023-09-18T10:02:40Z</time>
      </trkpt>
      <trkpt lat="48.7188" lon="7.21669">
        <ele>255.2</ele>
        <time>2023-09-18T10:02:45Z</time>
      </trkpt>
      <trkpt lat="48.719" lon="7.21657">
        <ele>252.3</ele>
        <time>2023-09-18T10:02:52Z</time>
      </trkpt>
      <trkpt lat="48.71914" lon="7.2164">
        <ele>248.6</ele>
        <time>2023-09-18T10:02:59Z</time>
      </trkpt>
      <trkpt lat="48.71927" lon="7.21636">
        <ele>245.3</ele>
        <time>2023-09-18T10:03:06Z</time>
      </trkpt>
      <trkpt lat="48.7193" lon="7.21667">
        <ele>240.5</ele>
        <time>2023-09-18T10:03:14Z</time>
      </trkpt>
      <trkpt lat="48.71929" lon="7.21694">
        <ele>236.9</ele>
        <time>2023-09-18T10:03:20Z</time>
      </trkpt>
      <trkpt lat="48.71931" lon="7.21716">
        <ele>234</ele>
        <time>2023-09-18T10:03:25Z</time>
      </trkpt>
      <trkpt lat="48.71936" lon="7.21717">
        <ele>231.8</ele>
        <time>2023-09-18T10:03:27Z</time>
      </trkpt>
      <trkpt lat="48.7195" lon="7.21698">
        <ele>231.7</ele>
        <time>2023-09-18T10:03:33Z</time>
      </trkpt>
      <trkpt lat="48.71964" lon="7.21675">
        <ele>232.4</ele>
        <time>2023-09-18T10:03:39Z</time>
      </trkpt>
      <trkpt lat="48.71972" lon="7.2165">
        <ele>233.8</ele>
        <time>2023-09-18T10:03:45Z</time>
      </trkpt>
      <trkpt lat="48.71978" lon="7.21621">
        <ele>235.2</ele>
        <time>2023-09-18T10:03:52Z</time>
      </trkpt>
      <trkpt lat="48.71989" lon="7.21595">
        <ele>237.1</ele>
        <time>2023-09-18T10:03:59Z</time>
      </trkpt>
      <trkpt lat="48.72" lon="7.21571">
        <ele>239.6</ele>
        <time>2023-09-18T10:04:05Z</time>
      </trkpt>
      <trkpt lat="48.7201" lon="7.21548">
        <ele>242.5</ele>
        <time>2023-09-18T10:04:13Z</time>
      </trkpt>
      <trkpt lat="48.72024" lon="7.21527">
        <ele>245.3</ele>
        <time>2023-09-18T10:04:20Z</time>
      </trkpt>
      <trkpt lat="48.72033" lon="7.21504">
        <ele>247.3</ele>
        <time>2023-09-18T10:04:26Z</time>
      </trkpt>
      <trkpt lat="48.72046" lon="7.21483">
        <ele>248.9</ele>
        <time>2023-09-18T10:04:32Z</time>
      </trkpt>
      <trkpt lat="48.72058" lon="7.21462">
        <ele>250.4</ele>
        <time>2023-09-18T10:04:38Z</time>
      </trkpt>
      <trkpt lat="48.7207" lon="7.2144">
        <ele>251.9</ele>
        <time>2023-09-18T10:04:44Z</time>
      </trkpt>
      <trkpt lat="48.7208" lon="7.21416">
        <ele>252.8</ele>
        <time>2023-09-18T10:04:50Z</time>
      </trkpt>
      <trkpt lat="48.72084" lon="7.21406">
        <ele>252.7</ele>
        <time>2023-09-18T10:04:53Z</time>
      </trkpt>
      <trkpt lat="48.72089" lon="7.21404">
        <ele>252.2</ele>
        <time>2023-09-18T10:04:57Z</time>
      </trkpt>
      <trkpt lat="48.72106" lon="7.21394">
        <ele>250.3</ele>
        <time>2023-09-18T10:05:07Z</time>
      </trkpt>
      <trkpt lat="48.72107" lon="7.21392">
        <ele>250.2</ele>
        <time>2023-09-18T10:05:08Z</time>
      </trkpt>
      <trkpt lat="48.72115" lon="7.21365">
        <ele>251.1</ele>
        <time>2023-09-18T10:05:15Z</time>
      </trkpt>
      <trkpt lat="48.72125" lon="7.21339">
        <ele>252.3</ele>
        <time>2023-09-18T10:05:22Z</time>
      </trkpt>
      <trkpt lat="48.72137" lon="7.21318">
        <ele>250.6</ele>
        <time>2023-09-18T10:05:29Z</time>
      </trkpt>
      <trkpt lat="48.7215" lon="7.21304">
        <ele>248.8</ele>
        <time>2023-09-18T10:05:37Z</time>
      </trkpt>
      <trkpt lat="48.7217" lon="7.21295">
        <ele>246.6</ele>
        <time>2023-09-18T10:05:44Z</time>
      </trkpt>
      <trkpt lat="48.72188" lon="7.21276">
        <ele>244.7</ele>
        <time>2023-09-18T10:05:49Z</time>
      </trkpt>
      <trkpt lat="48.72202" lon="7.21256">
        <ele>240.2</ele>
        <time>2023-09-18T10:05:57Z</time>
      </trkpt>
      <trkpt lat="48.72204" lon="7.21254">
        <ele>239.9</ele>
        <time>2023-09-18T10:05:58Z</time>
      </trkpt>
      <trkpt lat="48.72208" lon="7.2125">
        <ele>239</ele>
        <time>2023-09-18T10:06:01Z</time>
      </trkpt>
      <trkpt lat="48.72227" lon="7.2124">
        <ele>237.6</ele>
        <time>2023-09-18T10:06:10Z</time>
      </trkpt>
      <trkpt lat="48.72243" lon="7.21223">
        <ele>238.2</ele>
        <time>2023-09-18T10:06:17Z</time>
      </trkpt>
      <trkpt lat="48.72257" lon="7.21205">
        <ele>238.6</ele>
        <time>2023-09-18T10:06:23Z</time>
      </trkpt>
      <trkpt lat="48.72263" lon="7.21206">
        <ele>240</ele>
        <time>2023-09-18T10:06:25Z</time>
      </trkpt>
      <trkpt lat="48.72273" lon="7.2121">
        <ele>242.1</ele>
        <time>2023-09-18T10:06:29Z</time>
      </trkpt>
      <trkpt lat="48.72287" lon="7.21191">
        <ele>242.5</ele>
        <time>2023-09-18T10:06:34Z</time>
      </trkpt>
      <trkpt lat="48.72306" lon="7.21184">
        <ele>242.9</ele>
        <time>2023-09-18T10:06:41Z</time>
      </trkpt>
      <trkpt lat="48.72324" lon="7.21185">
        <ele>243.2</ele>
        <time>2023-09-18T10:06:48Z</time>
      </trkpt>
      <trkpt lat="48.72338" lon="7.21174">
        <ele>243.6</ele>
        <time>2023-09-18T10:06:55Z</time>
      </trkpt>
      <trkpt lat="48.72353" lon="7.21156">
        <ele>246.4</ele>
        <time>2023-09-18T10:07:06Z</time>
      </trkpt>
      <trkpt lat="48.72367" lon="7.21158">
        <ele>249.1</ele>
        <time>2023-09-18T10:07:12Z</time>
      </trkpt>
      <trkpt lat="48.72386" lon="7.21162">
        <ele>251.7</ele>
        <time>2023-09-18T10:07:20Z</time>
      </trkpt>
      <trkpt lat="48.72404" lon="7.21169">
        <ele>253.6</ele>
        <time>2023-09-18T10:07:28Z</time>
      </trkpt>
      <trkpt lat="48.72423" lon="7.21183">
        <ele>255.4</ele>
        <time>2023-09-18T10:07:38Z</time>
      </trkpt>
      <trkpt lat="48.72441" lon="7.21192">
        <ele>257</ele>
        <time>2023-09-18T10:07:45Z</time>
      </trkpt>
      <trkpt lat="48.72451" lon="7.21195">
        <ele>258.1</ele>
        <time>2023-09-18T10:07:55Z</time>
      </trkpt>
      <trkpt lat="48.72471" lon="7.21198">
        <ele>260</ele>
        <time>2023-09-18T10:08:03Z</time>
      </trkpt>
      <trkpt lat="48.72489" lon="7.21191">
        <ele>262</ele>
        <time>2023-09-18T10:08:12Z</time>
      </trkpt>
      <trkpt lat="48.72498" lon="7.2119">
        <ele>263.2</ele>
        <time>2023-09-18T10:08:16Z</time>
      </trkpt>
      <trkpt lat="48.72512" lon="7.21192">
        <ele>265.9</ele>
        <time>2023-09-18T10:08:28Z</time>
      </trkpt>
      <trkpt lat="48.72514" lon="7.21191">
        <ele>266.4</ele>
        <time>2023-09-18T10:08:31Z</time>
      </trkpt>
      <trkpt lat="48.72526" lon="7.21179">
        <ele>270.1</ele>
        <time>2023-09-18T10:08:41Z</time>
      </trkpt>
      <trkpt lat="48.72528" lon="7.21178">
        <ele>271</ele>
        <time>2023-09-18T10:08:43Z</time>
      </trkpt>
      <trkpt lat="48.72548" lon="7.21176">
        <ele>276.7</ele>
        <time>2023-09-18T10:08:55Z</time>
      </trkpt>
      <trkpt lat="48.72553" lon="7.21172">
        <ele>278.3</ele>
        <time>2023-09-18T10:09:01Z</time>
      </trkpt>
      <trkpt lat="48.72556" lon="7.21171">
        <ele>279</ele>
        <time>2023-09-18T10:09:03Z</time>
      </trkpt>
      <trkpt lat="48.72561" lon="7.2117">
        <ele>280.4</ele>
        <time>2023-09-18T10:09:06Z</time>
      </trkpt>
      <trkpt lat="48.72564" lon="7.21169">
        <ele>290.7</ele>
        <time>2023-09-18T10:09:08Z</time>
      </trkpt>
      <trkpt lat="48.7256" lon="7.2116">
        <ele>292.7</ele>
        <time>2023-09-18T10:09:23Z</time>
      </trkpt>
      <trkpt lat="48.72578" lon="7.21152">
        <ele>298.2</ele>
        <time>2023-09-18T10:09:37Z</time>
      </trkpt>
      <trkpt lat="48.72596" lon="7.2114">
        <ele>303.9</ele>
        <time>2023-09-18T10:09:47Z</time>
      </trkpt>
      <trkpt lat="48.72613" lon="7.21133">
        <ele>309.3</ele>
        <time>2023-09-18T10:09:56Z</time>
      </trkpt>
      <trkpt lat="48.72619" lon="7.21129">
        <ele>316</ele>
        <time>2023-09-18T10:10:00Z</time>
      </trkpt>
      <trkpt lat="48.72601" lon="7.21124">
        <ele>316.9</ele>
        <time>2023-09-18T10:10:14Z</time>
      </trkpt>
      <trkpt lat="48.72583" lon="7.21119">
        <ele>317.3</ele>
        <time>2023-09-18T10:10:22Z</time>
      </trkpt>
      <trkpt lat="48.72565" lon="7.21118">
        <ele>317.8</ele>
        <time>2023-09-18T10:10:29Z</time>
      </trkpt>
      <trkpt lat="48.72546" lon="7.21119">
        <ele>318.4</ele>
        <time>2023-09-18T10:10:36Z</time>
      </trkpt>
      <trkpt lat="48.72526" lon="7.21111">
        <ele>319.5</ele>
        <time>2023-09-18T10:10:43Z</time>
      </trkpt>
      <trkpt lat="48.72507" lon="7.21101">
        <ele>320.8</ele>
        <time>2023-09-18T10:10:50Z</time>
      </trkpt>
      <trkpt lat="48.72492" lon="7.21087">
        <ele>321.8</ele>
        <time>2023-09-18T10:10:58Z</time>
      </trkpt>
      <trkpt lat="48.72477" lon="7.21071">
        <ele>322.4</ele>
        <time>2023-09-18T10:11:05Z</time>
      </trkpt>
      <trkpt lat="48.72463" lon="7.21053">
        <ele>322.8</ele>
        <time>2023-09-18T10:11:11Z</time>
      </trkpt>
      <trkpt lat="48.72456" lon="7.21026">
        <ele>322.7</ele>
        <time>2023-09-18T10:11:17Z</time>
      </trkpt>
      <trkpt lat="48.72457" lon="7.20996">
        <ele>322.2</ele>
        <time>2023-09-18T10:11:23Z</time>
      </trkpt>
      <trkpt lat="48.72457" lon="7.20965">
        <ele>321.6</ele>
        <time>2023-09-18T10:11:30Z</time>
      </trkpt>
      <trkpt lat="48.72456" lon="7.20937">
        <ele>320.8</ele>
        <time>2023-09-18T10:11:36Z</time>
      </trkpt>
      <trkpt lat="48.72456" lon="7.20907">
        <ele>319.7</ele>
        <time>2023-09-18T10:11:42Z</time>
      </trkpt>
      <trkpt lat="48.72455" lon="7.20878">
        <ele>318.5</ele>
        <time>2023-09-18T10:11:48Z</time>
      </trkpt>
      <trkpt lat="48.72456" lon="7.2085">
        <ele>316.8</ele>
        <time>2023-09-18T10:11:55Z</time>
      </trkpt>
      <trkpt lat="48.72454" lon="7.20822">
        <ele>314.9</ele>
        <time>2023-09-18T10:12:00Z</time>
      </trkpt>
      <trkpt lat="48.72456" lon="7.20795">
        <ele>313.4</ele>
        <time>2023-09-18T10:12:06Z</time>
      </trkpt>
      <trkpt lat="48.72461" lon="7.20765">
        <ele>312.2</ele>
        <time>2023-09-18T10:12:13Z</time>
      </trkpt>
      <trkpt lat="48.72467" lon="7.20739">
        <ele>310.9</ele>
        <time>2023-09-18T10:12:19Z</time>
      </trkpt>
      <trkpt lat="48.72474" lon="7.20712">
        <ele>309.7</ele>
        <time>2023-09-18T10:12:25Z</time>
      </trkpt>
      <trkpt lat="48.7248" lon="7.20683">
        <ele>308.2</ele>
        <time>2023-09-18T10:12:32Z</time>
      </trkpt>
      <trkpt lat="48.72481" lon="7.20653">
        <ele>306.6</ele>
        <time>2023-09-18T10:12:38Z</time>
      </trkpt>
      <trkpt lat="48.72489" lon="7.20625">
        <ele>305</ele>
        <time>2023-09-18T10:12:44Z</time>
      </trkpt>
      <trkpt lat="48.725" lon="7.206">
        <ele>303.6</ele>
        <time>2023-09-18T10:12:50Z</time>
      </trkpt>
      <trkpt lat="48.72512" lon="7.20574">
        <ele>302.8</ele>
        <time>2023-09-18T10:12:56Z</time>
      </trkpt>
      <trkpt lat="48.72517" lon="7.20546">
        <ele>302.3</ele>
        <time>2023-09-18T10:13:01Z</time>
      </trkpt>
      <trkpt lat="48.72523" lon="7.2052">
        <ele>301.6</ele>
        <time>2023-09-18T10:13:06Z</time>
      </trkpt>
      <trkpt lat="48.72527" lon="7.20492">
        <ele>301</ele>
        <time>2023-09-18T10:13:12Z</time>
      </trkpt>
      <trkpt lat="48.72529" lon="7.20464">
        <ele>300.1</ele>
        <time>2023-09-18T10:13:18Z</time>
      </trkpt>
      <trkpt lat="48.7253" lon="7.20434">
        <ele>298.8</ele>
        <time>2023-09-18T10:13:24Z</time>
      </trkpt>
      <trkpt lat="48.72532" lon="7.20402">
        <ele>297.7</ele>
        <time>2023-09-18T10:13:30Z</time>
      </trkpt>
      <trkpt lat="48.72534" lon="7.20372">
        <ele>297.4</ele>
        <time>2023-09-18T10:13:36Z</time>
      </trkpt>
      <trkpt lat="48.72539" lon="7.20343">
        <ele>297.6</ele>
        <time>2023-09-18T10:13:42Z</time>
      </trkpt>
      <trkpt lat="48.72545" lon="7.20314">
        <ele>298</ele>
        <time>2023-09-18T10:13:49Z</time>
      </trkpt>
      <trkpt lat="48.72545" lon="7.20282">
        <ele>298</ele>
        <time>2023-09-18T10:13:56Z</time>
      </trkpt>
      <trkpt lat="48.7254" lon="7.20251">
        <ele>297.8</ele>
        <time>2023-09-18T10:14:03Z</time>
      </trkpt>
      <trkpt lat="48.72538" lon="7.20223">
        <ele>297.7</ele>
        <time>2023-09-18T10:14:09Z</time>
      </trkpt>
      <trkpt lat="48.72538" lon="7.20196">
        <ele>297.6</ele>
        <time>2023-09-18T10:14:15Z</time>
      </trkpt>
      <trkpt lat="48.72536" lon="7.20167">
        <ele>297.2</ele>
        <time>2023-09-18T10:14:21Z</time>
      </trkpt>
      <trkpt lat="48.72529" lon="7.2014">
        <ele>293.2</ele>
        <time>2023-09-18T10:14:28Z</time>
      </trkpt>
      <trkpt lat="48.72518" lon="7.20115">
        <ele>286.5</ele>
        <time>2023-09-18T10:14:35Z</time>
      </trkpt>
      <trkpt lat="48.72513" lon="7.20088">
        <ele>280</ele>
        <time>2023-09-18T10:14:41Z</time>
      </trkpt>
      <trkpt lat="48.72511" lon="7.20056">
        <ele>272.6</ele>
        <time>2023-09-18T10:14:48Z</time>
      </trkpt>
      <trkpt lat="48.72511" lon="7.20026">
        <ele>266.2</ele>
        <time>2023-09-18T10:14:54Z</time>
      </trkpt>
      <trkpt lat="48.72515" lon="7.19998">
        <ele>265.7</ele>
        <time>2023-09-18T10:15:00Z</time>
      </trkpt>
      <trkpt lat="48.72529" lon="7.1998">
        <ele>265.9</ele>
        <time>2023-09-18T10:15:07Z</time>
      </trkpt>
      <trkpt lat="48.72525" lon="7.19982">
        <ele>266</ele>
        <time>2023-09-18T10:15:10Z</time>
      </trkpt>
      <trkpt lat="48.72506" lon="7.19986">
        <ele>262</ele>
        <time>2023-09-18T10:15:17Z</time>
      </trkpt>
      <trkpt lat="48.72506" lon="7.19983">
        <ele>262</ele>
        <time>2023-09-18T10:15:18Z</time>
      </trkpt>
      <trkpt lat="48.72505" lon="7.19978">
        <ele>261.9</ele>
        <time>2023-09-18T10:15:20Z</time>
      </trkpt>
      <trkpt lat="48.72505" lon="7.19987">
        <ele>261.8</ele>
        <time>2023-09-18T10:15:50Z</time>
      </trkpt>
      <trkpt lat="48.72524" lon="7.19982">
        <ele>265.6</ele>
        <time>2023-09-18T10:15:59Z</time>
      </trkpt>
      <trkpt lat="48.72541" lon="7.19973">
        <ele>266.9</ele>
        <time>2023-09-18T10:16:06Z</time>
      </trkpt>
      <trkpt lat="48.72557" lon="7.19955">
        <ele>267.4</ele>
        <time>2023-09-18T10:16:13Z</time>
      </trkpt>
      <trkpt lat="48.72568" lon="7.1993">
        <ele>268.1</ele>
        <time>2023-09-18T10:16:20Z</time>
      </trkpt>
      <trkpt lat="48.72578" lon="7.19907">
        <ele>268.5</ele>
        <time>2023-09-18T10:16:26Z</time>
      </trkpt>
      <trkpt lat="48.72596" lon="7.19891">
        <ele>268.6</ele>
        <time>2023-09-18T10:16:33Z</time>
      </trkpt>
      <trkpt lat="48.72612" lon="7.19873">
        <ele>268.3</ele>
        <time>2023-09-18T10:16:40Z</time>
      </trkpt>
      <trkpt lat="48.72615" lon="7.19845">
        <ele>267.3</ele>
        <time>2023-09-18T10:16:47Z</time>
      </trkpt>
      <trkpt lat="48.72601" lon="7.19824">
        <ele>264.5</ele>
        <time>2023-09-18T10:16:53Z</time>
      </trkpt>
      <trkpt lat="48.72586" lon="7.19811">
        <ele>262.7</ele>
        <time>2023-09-18T10:17:00Z</time>
      </trkpt>
      <trkpt lat="48.72566" lon="7.19814">
        <ele>260.8</ele>
        <time>2023-09-18T10:17:07Z</time>
      </trkpt>
      <trkpt lat="48.72545" lon="7.19815">
        <ele>259.1</ele>
        <time>2023-09-18T10:17:13Z</time>
      </trkpt>
      <trkpt lat="48.72526" lon="7.19807">
        <ele>257.6</ele>
        <time>2023-09-18T10:17:19Z</time>
      </trkpt>
      <trkpt lat="48.7251" lon="7.19821">
        <ele>255.5</ele>
        <time>2023-09-18T10:17:26Z</time>
      </trkpt>
      <trkpt lat="48.72492" lon="7.19829">
        <ele>250.5</ele>
        <time>2023-09-18T10:17:33Z</time>
      </trkpt>
      <trkpt lat="48.72486" lon="7.19829">
        <ele>250.6</ele>
        <time>2023-09-18T10:17:36Z</time>
      </trkpt>
      <trkpt lat="48.72478" lon="7.19804">
        <ele>250.8</ele>
        <time>2023-09-18T10:17:42Z</time>
      </trkpt>
      <trkpt lat="48.7247" lon="7.19776">
        <ele>250.9</ele>
        <time>2023-09-18T10:17:48Z</time>
      </trkpt>
      <trkpt lat="48.72462" lon="7.19748">
        <ele>250.9</ele>
        <time>2023-09-18T10:17:54Z</time>
      </trkpt>
      <trkpt lat="48.72455" lon="7.19719">
        <ele>251</ele>
        <time>2023-09-18T10:18:00Z</time>
      </trkpt>
      <trkpt lat="48.72447" lon="7.1969">
        <ele>251.3</ele>
        <time>2023-09-18T10:18:06Z</time>
      </trkpt>
      <trkpt lat="48.72441" lon="7.19661">
        <ele>251.9</ele>
        <time>2023-09-18T10:18:12Z</time>
      </trkpt>
      <trkpt lat="48.72434" lon="7.19636">
        <ele>252.8</ele>
        <time>2023-09-18T10:18:18Z</time>
      </trkpt>
      <trkpt lat="48.72428" lon="7.1961">
        <ele>253.2</ele>
        <time>2023-09-18T10:18:24Z</time>
      </trkpt>
      <trkpt lat="48.72418" lon="7.19583">
        <ele>253.3</ele>
        <time>2023-09-18T10:18:30Z</time>
      </trkpt>
      <trkpt lat="48.72411" lon="7.19556">
        <ele>253.5</ele>
        <time>2023-09-18T10:18:36Z</time>
      </trkpt>
      <trkpt lat="48.72405" lon="7.19526">
        <ele>253.5</ele>
        <time>2023-09-18T10:18:42Z</time>
      </trkpt>
      <trkpt lat="48.72399" lon="7.19497">
        <ele>253.5</ele>
        <time>2023-09-18T10:18:48Z</time>
      </trkpt>
      <trkpt lat="48.72393" lon="7.19466">
        <ele>253.6</ele>
        <time>2023-09-18T10:18:54Z</time>
      </trkpt>
      <trkpt lat="48.72391" lon="7.19438">
        <ele>253.6</ele>
        <time>2023-09-18T10:18:59Z</time>
      </trkpt>
      <trkpt lat="48.72389" lon="7.1941">
        <ele>253.8</ele>
        <time>2023-09-18T10:19:04Z</time>
      </trkpt>
      <trkpt lat="48.72387" lon="7.19383">
        <ele>254.2</ele>
        <time>2023-09-18T10:19:09Z</time>
      </trkpt>
      <trkpt lat="48.72386" lon="7.19352">
        <ele>255</ele>
        <time>2023-09-18T10:19:15Z</time>
      </trkpt>
      <trkpt lat="48.72388" lon="7.19324">
        <ele>255.7</ele>
        <time>2023-09-18T10:19:21Z</time>
      </trkpt>
      <trkpt lat="48.72388" lon="7.19293">
        <ele>256.1</ele>
        <time>2023-09-18T10:19:27Z</time>
      </trkpt>
      <trkpt lat="48.72389" lon="7.19264">
        <ele>256.2</ele>
        <time>2023-09-18T10:19:33Z</time>
      </trkpt>
      <trkpt lat="48.72388" lon="7.19235">
        <ele>256.2</ele>
        <time>2023-09-18T10:19:39Z</time>
      </trkpt>
      <trkpt lat="48.72388" lon="7.19205">
        <ele>256.2</ele>
        <time>2023-09-18T10:19:45Z</time>
      </trkpt>
      <trkpt lat="48.7239" lon="7.19175">
        <ele>256.1</ele>
        <time>2023-09-18T10:19:51Z</time>
      </trkpt>
      <trkpt lat="48.72393" lon="7.19145">
        <ele>256.1</ele>
        <time>2023-09-18T10:19:57Z</time>
      </trkpt>
      <trkpt lat="48.72397" lon="7.19113">
        <ele>256.1</ele>
        <time>2023-09-18T10:20:03Z</time>
      </trkpt>
      <trkpt lat="48.72401" lon="7.19086">
        <ele>256.3</ele>
        <time>2023-09-18T10:20:08Z</time>
      </trkpt>
      <trkpt lat="48.72405" lon="7.19059">
        <ele>256.7</ele>
        <time>2023-09-18T10:20:13Z</time>
      </trkpt>
      <trkpt lat="48.7241" lon="7.19029">
        <ele>257.5</ele>
        <time>2023-09-18T10:20:19Z</time>
      </trkpt>
      <trkpt lat="48.72415" lon="7.19002">
        <ele>258.2</ele>
        <time>2023-09-18T10:20:25Z</time>
      </trkpt>
      <trkpt lat="48.72421" lon="7.18972">
        <ele>258.5</ele>
        <time>2023-09-18T10:20:31Z</time>
      </trkpt>
      <trkpt lat="48.72427" lon="7.1894">
        <ele>258.7</ele>
        <time>2023-09-18T10:20:37Z</time>
      </trkpt>
      <trkpt lat="48.72431" lon="7.18912">
        <ele>258.7</ele>
        <time>2023-09-18T10:20:42Z</time>
      </trkpt>
      <trkpt lat="48.72435" lon="7.18885">
        <ele>258.7</ele>
        <time>2023-09-18T10:20:47Z</time>
      </trkpt>
      <trkpt lat="48.72441" lon="7.18858">
        <ele>258.7</ele>
        <time>2023-09-18T10:20:52Z</time>
      </trkpt>
      <trkpt lat="48.72446" lon="7.18829">
        <ele>258.9</ele>
        <time>2023-09-18T10:20:57Z</time>
      </trkpt>
      <trkpt lat="48.72452" lon="7.18803">
        <ele>258.9</ele>
        <time>2023-09-18T10:21:02Z</time>
      </trkpt>
      <trkpt lat="48.72461" lon="7.18774">
        <ele>258.9</ele>
        <time>2023-09-18T10:21:08Z</time>
      </trkpt>
      <trkpt lat="48.72471" lon="7.1875">
        <ele>259.1</ele>
        <time>2023-09-18T10:21:13Z</time>
      </trkpt>
      <trkpt lat="48.72481" lon="7.18728">
        <ele>259.7</ele>
        <time>2023-09-18T10:21:18Z</time>
      </trkpt>
      <trkpt lat="48.72494" lon="7.18705">
        <ele>260.5</ele>
        <time>2023-09-18T10:21:25Z</time>
      </trkpt>
      <trkpt lat="48.72508" lon="7.18686">
        <ele>261</ele>
        <time>2023-09-18T10:21:31Z</time>
      </trkpt>
      <trkpt lat="48.72521" lon="7.1866">
        <ele>261.4</ele>
        <time>2023-09-18T10:21:38Z</time>
      </trkpt>
      <trkpt lat="48.72529" lon="7.18633">
        <ele>261.7</ele>
        <time>2023-09-18T10:21:44Z</time>
      </trkpt>
      <trkpt lat="48.72533" lon="7.18603">
        <ele>262.3</ele>
        <time>2023-09-18T10:21:50Z</time>
      </trkpt>
      <trkpt lat="48.72536" lon="7.18575">
        <ele>263</ele>
        <time>2023-09-18T10:21:56Z</time>
      </trkpt>
      <trkpt lat="48.72535" lon="7.18547">
        <ele>263.5</ele>
        <time>2023-09-18T10:22:02Z</time>
      </trkpt>
      <trkpt lat="48.72529" lon="7.1852">
        <ele>264.1</ele>
        <time>2023-09-18T10:22:08Z</time>
      </trkpt>
      <trkpt lat="48.72521" lon="7.18493">
        <ele>264.4</ele>
        <time>2023-09-18T10:22:14Z</time>
      </trkpt>
      <trkpt lat="48.72512" lon="7.18466">
        <ele>264.9</ele>
        <time>2023-09-18T10:22:20Z</time>
      </trkpt>
      <trkpt lat="48.72507" lon="7.18436">
        <ele>265.6</ele>
        <time>2023-09-18T10:22:27Z</time>
      </trkpt>
      <trkpt lat="48.72512" lon="7.18406">
        <ele>266.1</ele>
        <time>2023-09-18T10:22:34Z</time>
      </trkpt>
      <trkpt lat="48.72505" lon="7.18377">
        <ele>266.4</ele>
        <time>2023-09-18T10:22:41Z</time>
      </trkpt>
      <trkpt lat="48.72499" lon="7.18351">
        <ele>266.5</ele>
        <time>2023-09-18T10:22:47Z</time>
      </trkpt>
      <trkpt lat="48.72491" lon="7.18324">
        <ele>266.5</ele>
        <time>2023-09-18T10:22:53Z</time>
      </trkpt>
      <trkpt lat="48.72485" lon="7.18297">
        <ele>266.5</ele>
        <time>2023-09-18T10:22:59Z</time>
      </trkpt>
      <trkpt lat="48.72477" lon="7.18271">
        <ele>266.5</ele>
        <time>2023-09-18T10:23:05Z</time>
      </trkpt>
      <trkpt lat="48.7247" lon="7.18241">
        <ele>266.4</ele>
        <time>2023-09-18T10:23:11Z</time>
      </trkpt>
      <trkpt lat="48.72463" lon="7.18211">
        <ele>266.4</ele>
        <time>2023-09-18T10:23:17Z</time>
      </trkpt>
      <trkpt lat="48.72455" lon="7.18182">
        <ele>266.7</ele>
        <time>2023-09-18T10:23:23Z</time>
      </trkpt>
      <trkpt lat="48.72447" lon="7.18155">
        <ele>267.2</ele>
        <time>2023-09-18T10:23:29Z</time>
      </trkpt>
      <trkpt lat="48.72441" lon="7.18129">
        <ele>267.8</ele>
        <time>2023-09-18T10:23:35Z</time>
      </trkpt>
      <trkpt lat="48.72436" lon="7.18103">
        <ele>268.8</ele>
        <time>2023-09-18T10:23:41Z</time>
      </trkpt>
      <trkpt lat="48.72429" lon="7.18074">
        <ele>270.5</ele>
        <time>2023-09-18T10:23:48Z</time>
      </trkpt>
      <trkpt lat="48.7242" lon="7.18047">
        <ele>271.8</ele>
        <time>2023-09-18T10:23:55Z</time>
      </trkpt>
      <trkpt lat="48.72412" lon="7.18021">
        <ele>272.1</ele>
        <time>2023-09-18T10:24:01Z</time>
      </trkpt>
      <trkpt lat="48.72407" lon="7.18015">
        <ele>272.2</ele>
        <time>2023-09-18T10:24:07Z</time>
      </trkpt>
      <trkpt lat="48.72408" lon="7.18028">
        <ele>272.4</ele>
        <time>2023-09-18T10:24:11Z</time>
      </trkpt>
      <trkpt lat="48.72407" lon="7.18028">
        <ele>272.4</ele>
        <time>2023-09-18T10:24:13Z</time>
      </trkpt>
      <trkpt lat="48.72393" lon="7.18007">
        <ele>272.8</ele>
        <time>2023-09-18T10:24:20Z</time>
      </trkpt>
      <trkpt lat="48.72382" lon="7.17986">
        <ele>272.9</ele>
        <time>2023-09-18T10:24:26Z</time>
      </trkpt>
      <trkpt lat="48.72369" lon="7.17966">
        <ele>273</ele>
        <time>2023-09-18T10:24:32Z</time>
      </trkpt>
      <trkpt lat="48.72357" lon="7.17944">
        <ele>273</ele>
        <time>2023-09-18T10:24:38Z</time>
      </trkpt>
      <trkpt lat="48.72346" lon="7.17921">
        <ele>272.9</ele>
        <time>2023-09-18T10:24:44Z</time>
      </trkpt>
      <trkpt lat="48.72336" lon="7.17896">
        <ele>272.6</ele>
        <time>2023-09-18T10:24:50Z</time>
      </trkpt>
      <trkpt lat="48.7233" lon="7.17866">
        <ele>272.2</ele>
        <time>2023-09-18T10:24:56Z</time>
      </trkpt>
      <trkpt lat="48.72325" lon="7.17837">
        <ele>271.8</ele>
        <time>2023-09-18T10:25:02Z</time>
      </trkpt>
      <trkpt lat="48.72322" lon="7.17808">
        <ele>271.6</ele>
        <time>2023-09-18T10:25:08Z</time>
      </trkpt>
      <trkpt lat="48.72319" lon="7.17778">
        <ele>271.6</ele>
        <time>2023-09-18T10:25:14Z</time>
      </trkpt>
      <trkpt lat="48.72318" lon="7.17749">
        <ele>271.6</ele>
        <time>2023-09-18T10:25:20Z</time>
      </trkpt>
      <trkpt lat="48.72317" lon="7.17721">
        <ele>271.8</ele>
        <time>2023-09-18T10:25:26Z</time>
      </trkpt>
      <trkpt lat="48.72322" lon="7.17691">
        <ele>271.9</ele>
        <time>2023-09-18T10:25:32Z</time>
      </trkpt>
      <trkpt lat="48.72328" lon="7.17661">
        <ele>272.2</ele>
        <time>2023-09-18T10:25:38Z</time>
      </trkpt>
      <trkpt lat="48.72328" lon="7.1763">
        <ele>273</ele>
        <time>2023-09-18T10:25:44Z</time>
      </trkpt>
      <trkpt lat="48.72326" lon="7.17599">
        <ele>274</ele>
        <time>2023-09-18T10:25:50Z</time>
      </trkpt>
      <trkpt lat="48.72323" lon="7.17571">
        <ele>275.3</ele>
        <time>2023-09-18T10:25:56Z</time>
      </trkpt>
      <trkpt lat="48.72318" lon="7.17542">
        <ele>277</ele>
        <time>2023-09-18T10:26:03Z</time>
      </trkpt>
      <trkpt lat="48.72314" lon="7.17514">
        <ele>278.6</ele>
        <time>2023-09-18T10:26:11Z</time>
      </trkpt>
      <trkpt lat="48.72307" lon="7.17485">
        <ele>280</ele>
        <time>2023-09-18T10:26:19Z</time>
      </trkpt>
      <trkpt lat="48.72308" lon="7.17454">
        <ele>281.3</ele>
        <time>2023-09-18T10:26:26Z</time>
      </trkpt>
      <trkpt lat="48.72308" lon="7.17425">
        <ele>282.4</ele>
        <time>2023-09-18T10:26:32Z</time>
      </trkpt>
      <trkpt lat="48.72311" lon="7.17398">
        <ele>283.3</ele>
        <time>2023-09-18T10:26:38Z</time>
      </trkpt>
      <trkpt lat="48.72311" lon="7.17369">
        <ele>283.8</ele>
        <time>2023-09-18T10:26:44Z</time>
      </trkpt>
      <trkpt lat="48.72308" lon="7.17339">
        <ele>284.2</ele>
        <time>2023-09-18T10:26:50Z</time>
      </trkpt>
      <trkpt lat="48.72308" lon="7.17308">
        <ele>284.4</ele>
        <time>2023-09-18T10:26:56Z</time>
      </trkpt>
      <trkpt lat="48.72308" lon="7.17279">
        <ele>284.5</ele>
        <time>2023-09-18T10:27:02Z</time>
      </trkpt>
      <trkpt lat="48.72303" lon="7.17251">
        <ele>284.5</ele>
        <time>2023-09-18T10:27:08Z</time>
      </trkpt>
      <trkpt lat="48.72296" lon="7.17223">
        <ele>284.5</ele>
        <time>2023-09-18T10:27:14Z</time>
      </trkpt>
      <trkpt lat="48.72289" lon="7.17193">
        <ele>284.4</ele>
        <time>2023-09-18T10:27:20Z</time>
      </trkpt>
      <trkpt lat="48.72283" lon="7.17167">
        <ele>284.4</ele>
        <time>2023-09-18T10:27:25Z</time>
      </trkpt>
      <trkpt lat="48.72274" lon="7.17137">
        <ele>284.3</ele>
        <time>2023-09-18T10:27:31Z</time>
      </trkpt>
      <trkpt lat="48.72267" lon="7.17112">
        <ele>284.3</ele>
        <time>2023-09-18T10:27:36Z</time>
      </trkpt>
      <trkpt lat="48.7226" lon="7.17085">
        <ele>284.3</ele>
        <time>2023-09-18T10:27:41Z</time>
      </trkpt>
      <trkpt lat="48.72253" lon="7.17055">
        <ele>284.4</ele>
        <time>2023-09-18T10:27:47Z</time>
      </trkpt>
      <trkpt lat="48.72244" lon="7.17027">
        <ele>284.5</ele>
        <time>2023-09-18T10:27:53Z</time>
      </trkpt>
      <trkpt lat="48.72238" lon="7.16999">
        <ele>284.7</ele>
        <time>2023-09-18T10:27:59Z</time>
      </trkpt>
      <trkpt lat="48.72231" lon="7.16973">
        <ele>284.8</ele>
        <time>2023-09-18T10:28:05Z</time>
      </trkpt>
      <trkpt lat="48.72226" lon="7.16945">
        <ele>285</ele>
        <time>2023-09-18T10:28:11Z</time>
      </trkpt>
      <trkpt lat="48.7222" lon="7.16917">
        <ele>285</ele>
        <time>2023-09-18T10:28:17Z</time>
      </trkpt>
      <trkpt lat="48.72216" lon="7.16888">
        <ele>284.9</ele>
        <time>2023-09-18T10:28:23Z</time>
      </trkpt>
      <trkpt lat="48.7221" lon="7.16859">
        <ele>284.7</ele>
        <time>2023-09-18T10:28:29Z</time>
      </trkpt>
      <trkpt lat="48.72205" lon="7.16829">
        <ele>284.7</ele>
        <time>2023-09-18T10:28:35Z</time>
      </trkpt>
      <trkpt lat="48.72195" lon="7.16801">
        <ele>284.6</ele>
        <time>2023-09-18T10:28:41Z</time>
      </trkpt>
      <trkpt lat="48.7218" lon="7.16783">
        <ele>284.6</ele>
        <time>2023-09-18T10:28:47Z</time>
      </trkpt>
      <trkpt lat="48.7216" lon="7.16776">
        <ele>284.7</ele>
        <time>2023-09-18T10:28:53Z</time>
      </trkpt>
      <trkpt lat="48.72141" lon="7.16769">
        <ele>284.9</ele>
        <time>2023-09-18T10:28:59Z</time>
      </trkpt>
      <trkpt lat="48.72122" lon="7.16764">
        <ele>289.8</ele>
        <time>2023-09-18T10:29:05Z</time>
      </trkpt>
      <trkpt lat="48.72103" lon="7.16758">
        <ele>290.2</ele>
        <time>2023-09-18T10:29:12Z</time>
      </trkpt>
      <trkpt lat="48.72085" lon="7.16747">
        <ele>290.9</ele>
        <time>2023-09-18T10:29:20Z</time>
      </trkpt>
      <trkpt lat="48.72078" lon="7.16748">
        <ele>291.1</ele>
        <time>2023-09-18T10:29:24Z</time>
      </trkpt>
      <trkpt lat="48.72065" lon="7.16728">
        <ele>291.3</ele>
        <time>2023-09-18T10:29:32Z</time>
      </trkpt>
      <trkpt lat="48.72054" lon="7.16701">
        <ele>291.3</ele>
        <time>2023-09-18T10:29:39Z</time>
      </trkpt>
      <trkpt lat="48.72043" lon="7.16678">
        <ele>291.3</ele>
        <time>2023-09-18T10:29:45Z</time>
      </trkpt>
      <trkpt lat="48.72029" lon="7.1666">
        <ele>291.5</ele>
        <time>2023-09-18T10:29:51Z</time>
      </trkpt>
      <trkpt lat="48.72012" lon="7.16642">
        <ele>291.7</ele>
        <time>2023-09-18T10:29:58Z</time>
      </trkpt>
      <trkpt lat="48.71996" lon="7.16626">
        <ele>292</ele>
        <time>2023-09-18T10:30:04Z</time>
      </trkpt>
      <trkpt lat="48.7198" lon="7.16608">
        <ele>292.5</ele>
        <time>2023-09-18T10:30:10Z</time>
      </trkpt>
      <trkpt lat="48.71965" lon="7.16591">
        <ele>293</ele>
        <time>2023-09-18T10:30:16Z</time>
      </trkpt>
      <trkpt lat="48.71947" lon="7.16575">
        <ele>293.5</ele>
        <time>2023-09-18T10:30:22Z</time>
      </trkpt>
      <trkpt lat="48.71931" lon="7.16556">
        <ele>294</ele>
        <time>2023-09-18T10:30:28Z</time>
      </trkpt>
      <trkpt lat="48.71915" lon="7.1654">
        <ele>294.5</ele>
        <time>2023-09-18T10:30:34Z</time>
      </trkpt>
      <trkpt lat="48.71897" lon="7.16527">
        <ele>295</ele>
        <time>2023-09-18T10:30:40Z</time>
      </trkpt>
      <trkpt lat="48.71882" lon="7.16511">
        <ele>295.3</ele>
        <time>2023-09-18T10:30:46Z</time>
      </trkpt>
      <trkpt lat="48.71864" lon="7.16497">
        <ele>295.8</ele>
        <time>2023-09-18T10:30:52Z</time>
      </trkpt>
      <trkpt lat="48.71847" lon="7.16483">
        <ele>296.2</ele>
        <time>2023-09-18T10:30:58Z</time>
      </trkpt>
      <trkpt lat="48.71829" lon="7.16468">
        <ele>296.6</ele>
        <time>2023-09-18T10:31:04Z</time>
      </trkpt>
      <trkpt lat="48.71812" lon="7.16454">
        <ele>296.9</ele>
        <time>2023-09-18T10:31:10Z</time>
      </trkpt>
      <trkpt lat="48.71795" lon="7.1644">
        <ele>297.3</ele>
        <time>2023-09-18T10:31:16Z</time>
      </trkpt>
      <trkpt lat="48.71779" lon="7.16426">
        <ele>297.4</ele>
        <time>2023-09-18T10:31:22Z</time>
      </trkpt>
      <trkpt lat="48.71762" lon="7.16418">
        <ele>297.6</ele>
        <time>2023-09-18T10:31:28Z</time>
      </trkpt>
      <trkpt lat="48.71742" lon="7.16418">
        <ele>297.8</ele>
        <time>2023-09-18T10:31:35Z</time>
      </trkpt>
      <trkpt lat="48.71722" lon="7.16413">
        <ele>298.1</ele>
        <time>2023-09-18T10:31:42Z</time>
      </trkpt>
      <trkpt lat="48.71704" lon="7.16406">
        <ele>298.4</ele>
        <time>2023-09-18T10:31:48Z</time>
      </trkpt>
      <trkpt lat="48.71683" lon="7.16401">
        <ele>298.8</ele>
        <time>2023-09-18T10:31:54Z</time>
      </trkpt>
      <trkpt lat="48.71664" lon="7.16395">
        <ele>299.3</ele>
        <time>2023-09-18T10:32:00Z</time>
      </trkpt>
      <trkpt lat="48.71645" lon="7.16387">
        <ele>299.7</ele>
        <time>2023-09-18T10:32:06Z</time>
      </trkpt>
      <trkpt lat="48.71625" lon="7.16382">
        <ele>300.2</ele>
        <time>2023-09-18T10:32:12Z</time>
      </trkpt>
      <trkpt lat="48.71605" lon="7.16376">
        <ele>300.8</ele>
        <time>2023-09-18T10:32:18Z</time>
      </trkpt>
      <trkpt lat="48.71587" lon="7.1637">
        <ele>301.3</ele>
        <time>2023-09-18T10:32:24Z</time>
      </trkpt>
      <trkpt lat="48.71569" lon="7.16368">
        <ele>301.7</ele>
        <time>2023-09-18T10:32:30Z</time>
      </trkpt>
      <trkpt lat="48.7155" lon="7.1637">
        <ele>302</ele>
        <time>2023-09-18T10:32:36Z</time>
      </trkpt>
      <trkpt lat="48.71529" lon="7.16377">
        <ele>302.7</ele>
        <time>2023-09-18T10:32:43Z</time>
      </trkpt>
      <trkpt lat="48.71513" lon="7.1639">
        <ele>303.4</ele>
        <time>2023-09-18T10:32:50Z</time>
      </trkpt>
      <trkpt lat="48.71496" lon="7.16403">
        <ele>304.2</ele>
        <time>2023-09-18T10:32:56Z</time>
      </trkpt>
      <trkpt lat="48.71476" lon="7.16408">
        <ele>304.9</ele>
        <time>2023-09-18T10:33:02Z</time>
      </trkpt>
      <trkpt lat="48.71458" lon="7.16408">
        <ele>305.9</ele>
        <time>2023-09-18T10:33:08Z</time>
      </trkpt>
      <trkpt lat="48.71437" lon="7.16408">
        <ele>307</ele>
        <time>2023-09-18T10:33:14Z</time>
      </trkpt>
      <trkpt lat="48.71419" lon="7.16404">
        <ele>308</ele>
        <time>2023-09-18T10:33:20Z</time>
      </trkpt>
      <trkpt lat="48.71399" lon="7.16395">
        <ele>309.1</ele>
        <time>2023-09-18T10:33:27Z</time>
      </trkpt>
      <trkpt lat="48.71381" lon="7.16387">
        <ele>309.9</ele>
        <time>2023-09-18T10:33:33Z</time>
      </trkpt>
      <trkpt lat="48.71361" lon="7.16385">
        <ele>310.4</ele>
        <time>2023-09-18T10:33:39Z</time>
      </trkpt>
      <trkpt lat="48.71343" lon="7.16381">
        <ele>310.8</ele>
        <time>2023-09-18T10:33:45Z</time>
      </trkpt>
      <trkpt lat="48.71324" lon="7.16368">
        <ele>311</ele>
        <time>2023-09-18T10:33:51Z</time>
      </trkpt>
      <trkpt lat="48.71307" lon="7.16352">
        <ele>311.2</ele>
        <time>2023-09-18T10:33:57Z</time>
      </trkpt>
      <trkpt lat="48.7129" lon="7.16337">
        <ele>311.4</ele>
        <time>2023-09-18T10:34:03Z</time>
      </trkpt>
      <trkpt lat="48.71274" lon="7.16321">
        <ele>311.6</ele>
        <time>2023-09-18T10:34:09Z</time>
      </trkpt>
      <trkpt lat="48.71257" lon="7.16304">
        <ele>311.9</ele>
        <time>2023-09-18T10:34:15Z</time>
      </trkpt>
      <trkpt lat="48.71241" lon="7.16287">
        <ele>312.3</ele>
        <time>2023-09-18T10:34:21Z</time>
      </trkpt>
      <trkpt lat="48.71225" lon="7.1627">
        <ele>312.8</ele>
        <time>2023-09-18T10:34:27Z</time>
      </trkpt>
      <trkpt lat="48.71207" lon="7.16257">
        <ele>313.4</ele>
        <time>2023-09-18T10:34:33Z</time>
      </trkpt>
      <trkpt lat="48.71188" lon="7.16252">
        <ele>314.2</ele>
        <time>2023-09-18T10:34:40Z</time>
      </trkpt>
      <trkpt lat="48.71169" lon="7.16259">
        <ele>315.1</ele>
        <time>2023-09-18T10:34:48Z</time>
      </trkpt>
      <trkpt lat="48.71154" lon="7.16271">
        <ele>316</ele>
        <time>2023-09-18T10:34:54Z</time>
      </trkpt>
    </trkseg>
  </trk>
</gpx>